<?xml version='1.0' encoding='utf-8'?>
<gpx xmlns="http://www.topografix.com/GPX/1/1" xmlns:xsi="http://www.w3.org/2001/XMLSchema-instance" version="v1.1.5" creator="iTravel Tech Inc. - http://www.itravel-tech.com" xsi:schemaLocation="http://www.topografix.com/GPX/1/1 http://www.topografix.com/GPX/1/1/gpx.xsd http://www.topografix.com/GPX/gpx_overlay/0/3 http://www.topografix.com/GPX/gpx_overlay/0/3/gpx_overlay.xsd http://www.topografix.com/GPX/gpx_modified/0/1 http://www.topografix.com/GPX/gpx_modified/0/1/gpx_modified.xsd">
<trk>
<name>Holux2010/07/17_10:09</name>
<trkseg>
<trkpt lat="55.895794" lon="26.532070">
<ele>105.0</ele>
<time>2010-07-17T07:09:42Z</time>
<desc>lat.=55.895794, lon.=26.532070, Alt.=106.711975m. Speed=13.752000m/h.</desc>
<speed>3.820000</speed>
</trkpt>
<trkpt lat="55.894768" lon="26.531824">
<ele>102.0</ele>
<time>2010-07-17T07:09:55Z</time>
<desc>lat.=55.894768, lon.=26.531824, Alt.=104.284241m. Speed=15.480000m/h.</desc>
<speed>4.300000</speed>
</trkpt>
<trkpt lat="55.894096" lon="26.533163">
<ele>102.5</ele>
<time>2010-07-17T07:10:14Z</time>
<desc>lat.=55.894096, lon.=26.533163, Alt.=110.770569m. Speed=9.576000m/h.</desc>
<speed>2.660000</speed>
</trkpt>
<trkpt lat="55.893806" lon="26.532864">
<ele>104.2</ele>
<time>2010-07-17T07:10:23Z</time>
<desc>lat.=55.893806, lon.=26.532864, Alt.=106.756897m. Speed=15.444000m/h.</desc>
<speed>4.290000</speed>
</trkpt>
<trkpt lat="55.893738" lon="26.533115">
<ele>103.6</ele>
<time>2010-07-17T07:10:29Z</time>
<desc>lat.=55.893738, lon.=26.533115, Alt.=108.208069m. Speed=17.172001m/h.</desc>
<speed>4.770000</speed>
</trkpt>
<trkpt lat="55.893345" lon="26.533230">
<ele>104.0</ele>
<time>2010-07-17T07:10:36Z</time>
<desc>lat.=55.893345, lon.=26.533230, Alt.=107.788147m. Speed=18.252001m/h.</desc>
<speed>5.070000</speed>
</trkpt>
<trkpt lat="55.882046" lon="26.534933">
<ele>106.5</ele>
<time>2010-07-17T07:13:29Z</time>
<desc>lat.=55.882046, lon.=26.534933, Alt.=93.901428m. Speed=25.164000m/h.</desc>
<speed>6.990000</speed>
</trkpt>
<trkpt lat="55.881615" lon="26.535023">
<ele>104.9</ele>
<time>2010-07-17T07:13:37Z</time>
<desc>lat.=55.881615, lon.=26.535023, Alt.=94.848694m. Speed=12.600000m/h.</desc>
<speed>3.500000</speed>
</trkpt>
<trkpt lat="55.881363" lon="26.535423">
<ele>103.5</ele>
<time>2010-07-17T07:13:45Z</time>
<desc>lat.=55.881363, lon.=26.535423, Alt.=99.432678m. Speed=17.243999m/h.</desc>
<speed>4.790000</speed>
</trkpt>
<trkpt lat="55.878532" lon="26.535912">
<ele>103.9</ele>
<time>2010-07-17T07:14:40Z</time>
<desc>lat.=55.878532, lon.=26.535912, Alt.=95.374084m. Speed=0.936000m/h.</desc>
<speed>0.260000</speed>
</trkpt>
<trkpt lat="55.878273" lon="26.538816">
<ele>105.2</ele>
<time>2010-07-17T07:15:45Z</time>
<desc>lat.=55.878273, lon.=26.538816, Alt.=102.786194m. Speed=13.932000m/h.</desc>
<speed>3.870000</speed>
</trkpt>
<trkpt lat="55.878513" lon="26.539852">
<ele>103.4</ele>
<time>2010-07-17T07:15:58Z</time>
<desc>lat.=55.878513, lon.=26.539852, Alt.=99.711975m. Speed=14.220000m/h.</desc>
<speed>3.950000</speed>
</trkpt>
<trkpt lat="55.876568" lon="26.540459">
<ele>103.9</ele>
<time>2010-07-17T07:16:32Z</time>
<desc>lat.=55.876568, lon.=26.540459, Alt.=101.999084m. Speed=28.007999m/h.</desc>
<speed>7.780000</speed>
</trkpt>
<trkpt lat="55.874302" lon="26.544926">
<ele>103.4</ele>
<time>2010-07-17T07:25:38Z</time>
<desc>lat.=55.874302, lon.=26.544926, Alt.=97.294006m. Speed=1.152000m/h.</desc>
<speed>0.320000</speed>
</trkpt>
<trkpt lat="55.875103" lon="26.543221">
<ele>105.6</ele>
<time>2010-07-17T07:26:11Z</time>
<desc>lat.=55.875103, lon.=26.543221, Alt.=97.069397m. Speed=20.591999m/h.</desc>
<speed>5.720000</speed>
</trkpt>
<trkpt lat="55.876835" lon="26.540298">
<ele>103.6</ele>
<time>2010-07-17T07:26:50Z</time>
<desc>lat.=55.876835, lon.=26.540298, Alt.=98.313538m. Speed=20.988001m/h.</desc>
<speed>5.830000</speed>
</trkpt>
<trkpt lat="55.878593" lon="26.539906">
<ele>103.3</ele>
<time>2010-07-17T07:27:29Z</time>
<desc>lat.=55.878593, lon.=26.539906, Alt.=99.581116m. Speed=12.492000m/h.</desc>
<speed>3.470000</speed>
</trkpt>
<trkpt lat="55.878956" lon="26.540415">
<ele>104.0</ele>
<time>2010-07-17T07:27:38Z</time>
<desc>lat.=55.878956, lon.=26.540415, Alt.=109.393616m. Speed=20.340000m/h.</desc>
<speed>5.650000</speed>
</trkpt>
<trkpt lat="55.879303" lon="26.539955">
<ele>103.2</ele>
<time>2010-07-17T07:27:45Z</time>
<desc>lat.=55.879303, lon.=26.539955, Alt.=105.413147m. Speed=23.688000m/h.</desc>
<speed>6.580000</speed>
</trkpt>
<trkpt lat="55.881580" lon="26.539486">
<ele>104.2</ele>
<time>2010-07-17T07:28:23Z</time>
<desc>lat.=55.881580, lon.=26.539486, Alt.=103.649475m. Speed=23.184000m/h.</desc>
<speed>6.440000</speed>
</trkpt>
<trkpt lat="55.881542" lon="26.535255">
<ele>104.4</ele>
<time>2010-07-17T07:29:02Z</time>
<desc>lat.=55.881542, lon.=26.535255, Alt.=100.502991m. Speed=22.032000m/h.</desc>
<speed>6.120000</speed>
</trkpt>
<trkpt lat="55.883141" lon="26.534813">
<ele>106.7</ele>
<time>2010-07-17T07:29:34Z</time>
<desc>lat.=55.883141, lon.=26.534813, Alt.=122.585022m. Speed=21.600000m/h.</desc>
<speed>6.000000</speed>
</trkpt>
<trkpt lat="55.893055" lon="26.533245">
<ele>104.3</ele>
<time>2010-07-17T07:32:19Z</time>
<desc>lat.=55.893055, lon.=26.533245, Alt.=103.356506m. Speed=16.379999m/h.</desc>
<speed>4.550000</speed>
</trkpt>
<trkpt lat="55.893604" lon="26.533112">
<ele>103.9</ele>
<time>2010-07-17T07:32:30Z</time>
<desc>lat.=55.893604, lon.=26.533112, Alt.=105.122131m. Speed=13.860000m/h.</desc>
<speed>3.850000</speed>
</trkpt>
<trkpt lat="55.893902" lon="26.532764">
<ele>103.8</ele>
<time>2010-07-17T07:33:03Z</time>
<desc>lat.=55.893902, lon.=26.532764, Alt.=100.801819m. Speed=7.740000m/h.</desc>
<speed>2.150000</speed>
</trkpt>
<trkpt lat="55.894192" lon="26.533045">
<ele>102.4</ele>
<time>2010-07-17T07:33:12Z</time>
<desc>lat.=55.894192, lon.=26.533045, Alt.=101.385803m. Speed=3.996000m/h.</desc>
<speed>1.110000</speed>
</trkpt>
<trkpt lat="55.894878" lon="26.531902">
<ele>104.0</ele>
<time>2010-07-17T07:33:33Z</time>
<desc>lat.=55.894878, lon.=26.531902, Alt.=96.260803m. Speed=16.704000m/h.</desc>
<speed>4.640000</speed>
</trkpt>
<trkpt lat="55.896343" lon="26.532593">
<ele>105.4</ele>
<time>2010-07-17T07:34:28Z</time>
<desc>lat.=55.896343, lon.=26.532593, Alt.=108.145569m. Speed=3.456000m/h.</desc>
<speed>0.960000</speed>
</trkpt>
<trkpt lat="55.896584" lon="26.532095">
<ele>106.2</ele>
<time>2010-07-17T07:34:39Z</time>
<desc>lat.=55.896584, lon.=26.532095, Alt.=105.629944m. Speed=11.412000m/h.</desc>
<speed>3.170000</speed>
</trkpt>
<trkpt lat="55.897003" lon="26.532240">
<ele>105.1</ele>
<time>2010-07-17T07:34:50Z</time>
<desc>lat.=55.897003, lon.=26.532240, Alt.=107.608459m. Speed=7.164000m/h.</desc>
<speed>1.990000</speed>
</trkpt>
<trkpt lat="55.897541" lon="26.530664">
<ele>105.9</ele>
<time>2010-07-17T07:35:26Z</time>
<desc>lat.=55.897541, lon.=26.530664, Alt.=102.051819m. Speed=3.852000m/h.</desc>
<speed>1.070000</speed>
</trkpt>
<trkpt lat="55.898998" lon="26.531326">
<ele>105.7</ele>
<time>2010-07-17T07:36:06Z</time>
<desc>lat.=55.898998, lon.=26.531326, Alt.=105.631897m. Speed=21.600000m/h.</desc>
<speed>6.000000</speed>
</trkpt>
<trkpt lat="55.899742" lon="26.529497">
<ele>108.2</ele>
<time>2010-07-17T07:36:35Z</time>
<desc>lat.=55.899742, lon.=26.529497, Alt.=115.626038m. Speed=12.924000m/h.</desc>
<speed>3.590000</speed>
</trkpt>
<trkpt lat="55.899986" lon="26.529242">
<ele>108.1</ele>
<time>2010-07-17T07:36:42Z</time>
<desc>lat.=55.899986, lon.=26.529242, Alt.=121.725647m. Speed=6.732000m/h.</desc>
<speed>1.870000</speed>
</trkpt>
<trkpt lat="55.900116" lon="26.528440">
<ele>111.2</ele>
<time>2010-07-17T07:37:20Z</time>
<desc>lat.=55.900116, lon.=26.528440, Alt.=126.641663m. Speed=3.456000m/h.</desc>
<speed>0.960000</speed>
</trkpt>
<trkpt lat="55.900211" lon="26.528868">
<ele>109.7</ele>
<time>2010-07-17T07:38:44Z</time>
<desc>lat.=55.900211, lon.=26.528868, Alt.=127.006897m. Speed=2.700000m/h.</desc>
<speed>0.750000</speed>
</trkpt>
<trkpt lat="55.900215" lon="26.528521">
<ele>110.5</ele>
<time>2010-07-17T07:39:24Z</time>
<desc>lat.=55.900215, lon.=26.528521, Alt.=127.680725m. Speed=2.052000m/h.</desc>
<speed>0.570000</speed>
</trkpt>
<trkpt lat="55.900513" lon="26.528355">
<ele>107.8</ele>
<time>2010-07-17T07:39:56Z</time>
<desc>lat.=55.900513, lon.=26.528355, Alt.=126.940491m. Speed=11.412000m/h.</desc>
<speed>3.170000</speed>
</trkpt>
<trkpt lat="55.900158" lon="26.528677">
<ele>110.9</ele>
<time>2010-07-17T07:40:02Z</time>
<desc>lat.=55.900158, lon.=26.528677, Alt.=126.438538m. Speed=7.164000m/h.</desc>
<speed>1.990000</speed>
</trkpt>
<trkpt lat="55.900272" lon="26.527805">
<ele>108.0</ele>
<time>2010-07-17T07:40:57Z</time>
<desc>lat.=55.900272, lon.=26.527805, Alt.=123.008850m. Speed=5.004000m/h.</desc>
<speed>1.390000</speed>
</trkpt>
<trkpt lat="55.898785" lon="26.531296">
<ele>104.3</ele>
<time>2010-07-17T07:42:11Z</time>
<desc>lat.=55.898785, lon.=26.531296, Alt.=115.686584m. Speed=18.072001m/h.</desc>
<speed>5.020000</speed>
</trkpt>
<trkpt lat="55.897587" lon="26.530626">
<ele>106.2</ele>
<time>2010-07-17T07:42:56Z</time>
<desc>lat.=55.897587, lon.=26.530626, Alt.=103.866272m. Speed=1.728000m/h.</desc>
<speed>0.480000</speed>
</trkpt>
<trkpt lat="55.897015" lon="26.532221">
<ele>105.1</ele>
<time>2010-07-17T07:43:38Z</time>
<desc>lat.=55.897015, lon.=26.532221, Alt.=105.311584m. Speed=14.652000m/h.</desc>
<speed>4.070000</speed>
</trkpt>
<trkpt lat="55.896603" lon="26.532101">
<ele>106.1</ele>
<time>2010-07-17T07:43:50Z</time>
<desc>lat.=55.896603, lon.=26.532101, Alt.=107.667053m. Speed=13.392000m/h.</desc>
<speed>3.720000</speed>
</trkpt>
<trkpt lat="55.896408" lon="26.532642">
<ele>106.0</ele>
<time>2010-07-17T07:44:02Z</time>
<desc>lat.=55.896408, lon.=26.532642, Alt.=109.536194m. Speed=1.080000m/h.</desc>
<speed>0.300000</speed>
</trkpt>
<trkpt lat="55.894878" lon="26.531841">
<ele>103.7</ele>
<time>2010-07-17T07:44:54Z</time>
<desc>lat.=55.894878, lon.=26.531841, Alt.=101.936584m. Speed=17.784000m/h.</desc>
<speed>4.940000</speed>
</trkpt>
<trkpt lat="55.894325" lon="26.533058">
<ele>102.5</ele>
<time>2010-07-17T07:45:13Z</time>
<desc>lat.=55.894325, lon.=26.533058, Alt.=102.770569m. Speed=9.864000m/h.</desc>
<speed>2.740000</speed>
</trkpt>
<trkpt lat="55.893959" lon="26.532736">
<ele>103.4</ele>
<time>2010-07-17T07:45:41Z</time>
<desc>lat.=55.893959, lon.=26.532736, Alt.=101.424866m. Speed=2.484000m/h.</desc>
<speed>0.690000</speed>
</trkpt>
<trkpt lat="55.893726" lon="26.533123">
<ele>103.6</ele>
<time>2010-07-17T07:45:51Z</time>
<desc>lat.=55.893726, lon.=26.533123, Alt.=104.282288m. Speed=18.180000m/h.</desc>
<speed>5.050000</speed>
</trkpt>
<trkpt lat="55.892967" lon="26.533268">
<ele>104.4</ele>
<time>2010-07-17T07:46:05Z</time>
<desc>lat.=55.892967, lon.=26.533268, Alt.=108.458069m. Speed=20.591999m/h.</desc>
<speed>5.720000</speed>
</trkpt>
<trkpt lat="55.892879" lon="26.533005">
<ele>105.0</ele>
<time>2010-07-17T07:46:10Z</time>
<desc>lat.=55.892879, lon.=26.533005, Alt.=105.057678m. Speed=14.904000m/h.</desc>
<speed>4.140000</speed>
</trkpt>
<trkpt lat="55.893330" lon="26.531693">
<ele>104.6</ele>
<time>2010-07-17T07:46:24Z</time>
<desc>lat.=55.893330, lon.=26.531693, Alt.=100.813538m. Speed=25.271999m/h.</desc>
<speed>7.020000</speed>
</trkpt>
<trkpt lat="55.894344" lon="26.529316">
<ele>103.6</ele>
<time>2010-07-17T07:47:00Z</time>
<desc>lat.=55.894344, lon.=26.529316, Alt.=101.997131m. Speed=13.716000m/h.</desc>
<speed>3.810000</speed>
</trkpt>
<trkpt lat="55.894238" lon="26.528883">
<ele>105.5</ele>
<time>2010-07-17T07:47:06Z</time>
<desc>lat.=55.894238, lon.=26.528883, Alt.=102.102600m. Speed=19.080000m/h.</desc>
<speed>5.300000</speed>
</trkpt>
<trkpt lat="55.892456" lon="26.526678">
<ele>105.0</ele>
<time>2010-07-17T07:47:43Z</time>
<desc>lat.=55.892456, lon.=26.526678, Alt.=97.524475m. Speed=22.680000m/h.</desc>
<speed>6.300000</speed>
</trkpt>
<trkpt lat="55.890606" lon="26.526913">
<ele>104.4</ele>
<time>2010-07-17T07:48:15Z</time>
<desc>lat.=55.890606, lon.=26.526913, Alt.=95.471741m. Speed=22.356001m/h.</desc>
<speed>6.210000</speed>
</trkpt>
<trkpt lat="55.889046" lon="26.525612">
<ele>100.5</ele>
<time>2010-07-17T07:48:40Z</time>
<desc>lat.=55.889046, lon.=26.525612, Alt.=99.356506m. Speed=27.504000m/h.</desc>
<speed>7.640000</speed>
</trkpt>
<trkpt lat="55.888695" lon="26.524956">
<ele>101.3</ele>
<time>2010-07-17T07:48:49Z</time>
<desc>lat.=55.888695, lon.=26.524956, Alt.=97.735413m. Speed=19.080000m/h.</desc>
<speed>5.300000</speed>
</trkpt>
<trkpt lat="55.887943" lon="26.524353">
<ele>99.4</ele>
<time>2010-07-17T07:49:02Z</time>
<desc>lat.=55.887943, lon.=26.524353, Alt.=96.014709m. Speed=22.788000m/h.</desc>
<speed>6.330000</speed>
</trkpt>
<trkpt lat="55.882538" lon="26.522087">
<ele>93.4</ele>
<time>2010-07-17T07:51:00Z</time>
<desc>lat.=55.882538, lon.=26.522087, Alt.=95.686584m. Speed=26.568001m/h.</desc>
<speed>7.380000</speed>
</trkpt>
<trkpt lat="55.881195" lon="26.521803">
<ele>96.6</ele>
<time>2010-07-17T07:51:22Z</time>
<desc>lat.=55.881195, lon.=26.521803, Alt.=94.801819m. Speed=16.091999m/h.</desc>
<speed>4.470000</speed>
</trkpt>
<trkpt lat="55.881027" lon="26.520895">
<ele>95.7</ele>
<time>2010-07-17T07:51:36Z</time>
<desc>lat.=55.881027, lon.=26.520895, Alt.=99.135803m. Speed=20.160000m/h.</desc>
<speed>5.600000</speed>
</trkpt>
<trkpt lat="55.880093" lon="26.519878">
<ele>97.2</ele>
<time>2010-07-17T07:51:59Z</time>
<desc>lat.=55.880093, lon.=26.519878, Alt.=95.145569m. Speed=13.464000m/h.</desc>
<speed>3.740000</speed>
</trkpt>
<trkpt lat="55.880703" lon="26.518852">
<ele>95.0</ele>
<time>2010-07-17T07:52:40Z</time>
<desc>lat.=55.880703, lon.=26.518852, Alt.=101.518616m. Speed=3.708000m/h.</desc>
<speed>1.030000</speed>
</trkpt>
<trkpt lat="55.880692" lon="26.518501">
<ele>96.1</ele>
<time>2010-07-17T07:52:46Z</time>
<desc>lat.=55.880692, lon.=26.518501, Alt.=101.661194m. Speed=14.400000m/h.</desc>
<speed>4.000000</speed>
</trkpt>
<trkpt lat="55.879787" lon="26.516521">
<ele>90.4</ele>
<time>2010-07-17T07:53:11Z</time>
<desc>lat.=55.879787, lon.=26.516521, Alt.=110.282288m. Speed=26.316000m/h.</desc>
<speed>7.310000</speed>
</trkpt>
<trkpt lat="55.878613" lon="26.512678">
<ele>94.3</ele>
<time>2010-07-17T07:53:51Z</time>
<desc>lat.=55.878613, lon.=26.512678, Alt.=111.362366m. Speed=20.591999m/h.</desc>
<speed>5.720000</speed>
</trkpt>
<trkpt lat="55.877972" lon="26.511089">
<ele>90.4</ele>
<time>2010-07-17T07:54:08Z</time>
<desc>lat.=55.877972, lon.=26.511089, Alt.=104.518616m. Speed=13.428000m/h.</desc>
<speed>3.730000</speed>
</trkpt>
<trkpt lat="55.877537" lon="26.510595">
<ele>94.1</ele>
<time>2010-07-17T07:54:17Z</time>
<desc>lat.=55.877537, lon.=26.510595, Alt.=92.895569m. Speed=21.600000m/h.</desc>
<speed>6.000000</speed>
</trkpt>
<trkpt lat="55.876369" lon="26.510307">
<ele>95.2</ele>
<time>2010-07-17T07:54:36Z</time>
<desc>lat.=55.876369, lon.=26.510307, Alt.=92.335022m. Speed=25.128000m/h.</desc>
<speed>6.980000</speed>
</trkpt>
<trkpt lat="55.874477" lon="26.510509">
<ele>92.3</ele>
<time>2010-07-17T07:55:09Z</time>
<desc>lat.=55.874477, lon.=26.510509, Alt.=90.366272m. Speed=20.268000m/h.</desc>
<speed>5.630000</speed>
</trkpt>
<trkpt lat="55.873119" lon="26.511835">
<ele>92.4</ele>
<time>2010-07-17T07:55:37Z</time>
<desc>lat.=55.873119, lon.=26.511835, Alt.=92.282288m. Speed=13.824000m/h.</desc>
<speed>3.840000</speed>
</trkpt>
<trkpt lat="55.872055" lon="26.509024">
<ele>91.8</ele>
<time>2010-07-17T07:56:13Z</time>
<desc>lat.=55.872055, lon.=26.509024, Alt.=94.497131m. Speed=22.572001m/h.</desc>
<speed>6.270000</speed>
</trkpt>
<trkpt lat="55.870941" lon="26.508272">
<ele>92.1</ele>
<time>2010-07-17T07:56:35Z</time>
<desc>lat.=55.870941, lon.=26.508272, Alt.=91.450256m. Speed=19.152000m/h.</desc>
<speed>5.320000</speed>
</trkpt>
<trkpt lat="55.869778" lon="26.509394">
<ele>99.4</ele>
<time>2010-07-17T07:57:01Z</time>
<desc>lat.=55.869778, lon.=26.509394, Alt.=86.268616m. Speed=14.040000m/h.</desc>
<speed>3.900000</speed>
</trkpt>
<trkpt lat="55.869125" lon="26.507910">
<ele>100.7</ele>
<time>2010-07-17T07:57:26Z</time>
<desc>lat.=55.869125, lon.=26.507910, Alt.=85.465881m. Speed=19.332001m/h.</desc>
<speed>5.370000</speed>
</trkpt>
<trkpt lat="55.868126" lon="26.509195">
<ele>92.4</ele>
<time>2010-07-17T07:58:01Z</time>
<desc>lat.=55.868126, lon.=26.509195, Alt.=99.299866m. Speed=20.844000m/h.</desc>
<speed>5.790000</speed>
</trkpt>
<trkpt lat="55.867535" lon="26.511284">
<ele>92.6</ele>
<time>2010-07-17T07:58:23Z</time>
<desc>lat.=55.867535, lon.=26.511284, Alt.=100.268616m. Speed=20.916000m/h.</desc>
<speed>5.810000</speed>
</trkpt>
<trkpt lat="55.867271" lon="26.512959">
<ele>96.5</ele>
<time>2010-07-17T07:58:43Z</time>
<desc>lat.=55.867271, lon.=26.512959, Alt.=100.342834m. Speed=16.128000m/h.</desc>
<speed>4.480000</speed>
</trkpt>
<trkpt lat="55.864326" lon="26.511082">
<ele>100.3</ele>
<time>2010-07-17T07:59:42Z</time>
<desc>lat.=55.864326, lon.=26.511082, Alt.=95.741272m. Speed=21.348000m/h.</desc>
<speed>5.930000</speed>
</trkpt>
<trkpt lat="55.864269" lon="26.510239">
<ele>96.4</ele>
<time>2010-07-17T07:59:50Z</time>
<desc>lat.=55.864269, lon.=26.510239, Alt.=96.483459m. Speed=25.812000m/h.</desc>
<speed>7.170000</speed>
</trkpt>
<trkpt lat="55.864677" lon="26.508810">
<ele>96.1</ele>
<time>2010-07-17T08:00:03Z</time>
<desc>lat.=55.864677, lon.=26.508810, Alt.=99.284241m. Speed=24.983999m/h.</desc>
<speed>6.940000</speed>
</trkpt>
<trkpt lat="55.865025" lon="26.506395">
<ele>94.9</ele>
<time>2010-07-17T08:00:25Z</time>
<desc>lat.=55.865025, lon.=26.506395, Alt.=100.549866m. Speed=26.280001m/h.</desc>
<speed>7.300000</speed>
</trkpt>
<trkpt lat="55.864990" lon="26.503830">
<ele>95.4</ele>
<time>2010-07-17T08:00:51Z</time>
<desc>lat.=55.864990, lon.=26.503830, Alt.=102.512756m. Speed=22.212000m/h.</desc>
<speed>6.170000</speed>
</trkpt>
<trkpt lat="55.866123" lon="26.503225">
<ele>94.6</ele>
<time>2010-07-17T08:01:10Z</time>
<desc>lat.=55.866123, lon.=26.503225, Alt.=100.274475m. Speed=23.400000m/h.</desc>
<speed>6.500000</speed>
</trkpt>
<trkpt lat="55.868538" lon="26.499815">
<ele>94.5</ele>
<time>2010-07-17T08:01:59Z</time>
<desc>lat.=55.868538, lon.=26.499815, Alt.=95.897522m. Speed=25.704000m/h.</desc>
<speed>7.140000</speed>
</trkpt>
<trkpt lat="55.870064" lon="26.498472">
<ele>93.2</ele>
<time>2010-07-17T08:02:26Z</time>
<desc>lat.=55.870064, lon.=26.498472, Alt.=92.997131m. Speed=23.472000m/h.</desc>
<speed>6.520000</speed>
</trkpt>
<trkpt lat="55.875031" lon="26.496803">
<ele>92.5</ele>
<time>2010-07-17T08:03:48Z</time>
<desc>lat.=55.875031, lon.=26.496803, Alt.=97.811584m. Speed=25.848000m/h.</desc>
<speed>7.180000</speed>
</trkpt>
<trkpt lat="55.875671" lon="26.496677">
<ele>92.6</ele>
<time>2010-07-17T08:03:59Z</time>
<desc>lat.=55.875671, lon.=26.496677, Alt.=90.157288m. Speed=22.788000m/h.</desc>
<speed>6.330000</speed>
</trkpt>
<trkpt lat="55.877117" lon="26.496958">
<ele>88.6</ele>
<time>2010-07-17T08:04:21Z</time>
<desc>lat.=55.877117, lon.=26.496958, Alt.=93.016663m. Speed=24.804001m/h.</desc>
<speed>6.890000</speed>
</trkpt>
<trkpt lat="55.878227" lon="26.495720">
<ele>97.7</ele>
<time>2010-07-17T08:04:43Z</time>
<desc>lat.=55.878227, lon.=26.495720, Alt.=90.463928m. Speed=24.120001m/h.</desc>
<speed>6.700000</speed>
</trkpt>
<trkpt lat="55.878418" lon="26.495058">
<ele>99.1</ele>
<time>2010-07-17T08:04:51Z</time>
<desc>lat.=55.878418, lon.=26.495058, Alt.=91.249084m. Speed=21.275999m/h.</desc>
<speed>5.910000</speed>
</trkpt>
<trkpt lat="55.878300" lon="26.493999">
<ele>96.7</ele>
<time>2010-07-17T08:05:04Z</time>
<desc>lat.=55.878300, lon.=26.493999, Alt.=92.585022m. Speed=22.284000m/h.</desc>
<speed>6.190000</speed>
</trkpt>
<trkpt lat="55.877285" lon="26.491169">
<ele>95.0</ele>
<time>2010-07-17T08:05:36Z</time>
<desc>lat.=55.877285, lon.=26.491169, Alt.=87.907288m. Speed=22.284000m/h.</desc>
<speed>6.190000</speed>
</trkpt>
<trkpt lat="55.877693" lon="26.488932">
<ele>93.8</ele>
<time>2010-07-17T08:05:59Z</time>
<desc>lat.=55.877693, lon.=26.488932, Alt.=91.288147m. Speed=15.372000m/h.</desc>
<speed>4.270000</speed>
</trkpt>
<trkpt lat="55.877472" lon="26.488129">
<ele>93.2</ele>
<time>2010-07-17T08:06:09Z</time>
<desc>lat.=55.877472, lon.=26.488129, Alt.=92.901428m. Speed=22.752001m/h.</desc>
<speed>6.320000</speed>
</trkpt>
<trkpt lat="55.837143" lon="26.433960">
<ele>150.6</ele>
<time>2010-07-17T08:21:46Z</time>
<desc>lat.=55.837143, lon.=26.433960, Alt.=147.466919m. Speed=8.712000m/h.</desc>
<speed>2.420000</speed>
</trkpt>
<trkpt lat="55.833191" lon="26.428947">
<ele>146.8</ele>
<time>2010-07-17T08:22:57Z</time>
<desc>lat.=55.833191, lon.=26.428947, Alt.=148.021606m. Speed=23.472000m/h.</desc>
<speed>6.520000</speed>
</trkpt>
<trkpt lat="55.831135" lon="26.425907">
<ele>138.6</ele>
<time>2010-07-17T08:23:35Z</time>
<desc>lat.=55.831135, lon.=26.425907, Alt.=143.220825m. Speed=27.431999m/h.</desc>
<speed>7.620000</speed>
</trkpt>
<trkpt lat="55.826714" lon="26.420206">
<ele>120.6</ele>
<time>2010-07-17T08:24:36Z</time>
<desc>lat.=55.826714, lon.=26.420206, Alt.=135.259888m. Speed=41.580002m/h.</desc>
<speed>11.550001</speed>
</trkpt>
<trkpt lat="55.825298" lon="26.418056">
<ele>121.6</ele>
<time>2010-07-17T08:25:01Z</time>
<desc>lat.=55.825298, lon.=26.418056, Alt.=121.961975m. Speed=17.927999m/h.</desc>
<speed>4.980000</speed>
</trkpt>
<trkpt lat="55.808987" lon="26.396147">
<ele>150.7</ele>
<time>2010-07-17T08:32:41Z</time>
<desc>lat.=55.808987, lon.=26.396147, Alt.=146.900513m. Speed=21.275999m/h.</desc>
<speed>5.910000</speed>
</trkpt>
<trkpt lat="55.781456" lon="26.359531">
<ele>153.0</ele>
<time>2010-07-17T08:42:50Z</time>
<desc>lat.=55.781456, lon.=26.359531, Alt.=159.521606m. Speed=19.836000m/h.</desc>
<speed>5.510000</speed>
</trkpt>
<trkpt lat="55.781284" lon="26.359114">
<ele>155.0</ele>
<time>2010-07-17T08:42:57Z</time>
<desc>lat.=55.781284, lon.=26.359114, Alt.=158.541138m. Speed=18.072001m/h.</desc>
<speed>5.020000</speed>
</trkpt>
<trkpt lat="55.782066" lon="26.356033">
<ele>153.9</ele>
<time>2010-07-17T08:43:38Z</time>
<desc>lat.=55.782066, lon.=26.356033, Alt.=154.701294m. Speed=6.192000m/h.</desc>
<speed>1.720000</speed>
</trkpt>
<trkpt lat="55.781754" lon="26.355862">
<ele>151.3</ele>
<time>2010-07-17T08:44:36Z</time>
<desc>lat.=55.781754, lon.=26.355862, Alt.=150.306763m. Speed=0.468000m/h.</desc>
<speed>0.130000</speed>
</trkpt>
<trkpt lat="55.782200" lon="26.355936">
<ele>153.0</ele>
<time>2010-07-17T08:49:27Z</time>
<desc>lat.=55.782200, lon.=26.355936, Alt.=178.189575m. Speed=17.747999m/h.</desc>
<speed>4.930000</speed>
</trkpt>
<trkpt lat="55.783337" lon="26.351076">
<ele>151.3</ele>
<time>2010-07-17T08:50:35Z</time>
<desc>lat.=55.783337, lon.=26.351076, Alt.=153.576294m. Speed=18.827999m/h.</desc>
<speed>5.230000</speed>
</trkpt>
<trkpt lat="55.782909" lon="26.348206">
<ele>145.5</ele>
<time>2010-07-17T08:51:19Z</time>
<desc>lat.=55.782909, lon.=26.348206, Alt.=149.963013m. Speed=7.452000m/h.</desc>
<speed>2.070000</speed>
</trkpt>
<trkpt lat="55.782295" lon="26.347387">
<ele>143.5</ele>
<time>2010-07-17T08:51:38Z</time>
<desc>lat.=55.782295, lon.=26.347387, Alt.=144.564575m. Speed=6.840000m/h.</desc>
<speed>1.900000</speed>
</trkpt>
<trkpt lat="55.782169" lon="26.346579">
<ele>139.2</ele>
<time>2010-07-17T08:52:20Z</time>
<desc>lat.=55.782169, lon.=26.346579, Alt.=142.974731m. Speed=0.108000m/h.</desc>
<speed>0.030000</speed>
</trkpt>
<trkpt lat="55.782219" lon="26.347183">
<ele>141.8</ele>
<time>2010-07-17T08:59:47Z</time>
<desc>lat.=55.782219, lon.=26.347183, Alt.=145.127075m. Speed=0.216000m/h.</desc>
<speed>0.060000</speed>
</trkpt>
<trkpt lat="55.783009" lon="26.348240">
<ele>151.0</ele>
<time>2010-07-17T09:22:16Z</time>
<desc>lat.=55.783009, lon.=26.348240, Alt.=146.810669m. Speed=8.712000m/h.</desc>
<speed>2.420000</speed>
</trkpt>
<trkpt lat="55.783405" lon="26.350885">
<ele>151.2</ele>
<time>2010-07-17T09:22:56Z</time>
<desc>lat.=55.783405, lon.=26.350885, Alt.=143.560669m. Speed=9.648000m/h.</desc>
<speed>2.680000</speed>
</trkpt>
<trkpt lat="55.782558" lon="26.354479">
<ele>153.8</ele>
<time>2010-07-17T09:23:56Z</time>
<desc>lat.=55.782558, lon.=26.354479, Alt.=162.420044m. Speed=13.248000m/h.</desc>
<speed>3.680000</speed>
</trkpt>
<trkpt lat="55.781235" lon="26.358986">
<ele>155.5</ele>
<time>2010-07-17T09:29:24Z</time>
<desc>lat.=55.781235, lon.=26.358986, Alt.=158.353638m. Speed=11.340000m/h.</desc>
<speed>3.150000</speed>
</trkpt>
<trkpt lat="55.777863" lon="26.354824">
<ele>141.7</ele>
<time>2010-07-17T09:30:33Z</time>
<desc>lat.=55.777863, lon.=26.354824, Alt.=140.810669m. Speed=39.492001m/h.</desc>
<speed>10.970000</speed>
</trkpt>
<trkpt lat="55.764378" lon="26.336750">
<ele>141.9</ele>
<time>2010-07-17T09:35:03Z</time>
<desc>lat.=55.764378, lon.=26.336750, Alt.=132.783325m. Speed=27.323999m/h.</desc>
<speed>7.590000</speed>
</trkpt>
<trkpt lat="55.756840" lon="26.327066">
<ele>151.3</ele>
<time>2010-07-17T09:37:39Z</time>
<desc>lat.=55.756840, lon.=26.327066, Alt.=141.810669m. Speed=22.464001m/h.</desc>
<speed>6.240000</speed>
</trkpt>
<trkpt lat="55.746033" lon="26.312447">
<ele>141.5</ele>
<time>2010-07-17T09:41:55Z</time>
<desc>lat.=55.746033, lon.=26.312447, Alt.=140.220825m. Speed=25.740000m/h.</desc>
<speed>7.150000</speed>
</trkpt>
<trkpt lat="55.744148" lon="26.307640">
<ele>128.3</ele>
<time>2010-07-17T09:42:36Z</time>
<desc>lat.=55.744148, lon.=26.307640, Alt.=128.736450m. Speed=24.408001m/h.</desc>
<speed>6.780000</speed>
</trkpt>
<trkpt lat="55.743626" lon="26.305912">
<ele>131.0</ele>
<time>2010-07-17T09:42:54Z</time>
<desc>lat.=55.743626, lon.=26.305912, Alt.=125.264709m. Speed=22.464001m/h.</desc>
<speed>6.240000</speed>
</trkpt>
<trkpt lat="55.740211" lon="26.287741">
<ele>143.9</ele>
<time>2010-07-17T09:46:34Z</time>
<desc>lat.=55.740211, lon.=26.287741, Alt.=134.728638m. Speed=13.140000m/h.</desc>
<speed>3.650000</speed>
</trkpt>
<trkpt lat="55.738441" lon="26.279076">
<ele>148.9</ele>
<time>2010-07-17T09:48:24Z</time>
<desc>lat.=55.738441, lon.=26.279076, Alt.=149.275513m. Speed=13.320000m/h.</desc>
<speed>3.700000</speed>
</trkpt>
<trkpt lat="55.737034" lon="26.268276">
<ele>152.8</ele>
<time>2010-07-17T09:54:35Z</time>
<desc>lat.=55.737034, lon.=26.268276, Alt.=144.263794m. Speed=16.884001m/h.</desc>
<speed>4.690000</speed>
</trkpt>
<trkpt lat="55.734383" lon="26.258112">
<ele>148.9</ele>
<time>2010-07-17T09:56:55Z</time>
<desc>lat.=55.734383, lon.=26.258112, Alt.=144.107544m. Speed=7.092000m/h.</desc>
<speed>1.970000</speed>
</trkpt>
<trkpt lat="55.734493" lon="26.257679">
<ele>147.7</ele>
<time>2010-07-17T09:57:09Z</time>
<desc>lat.=55.734493, lon.=26.257679, Alt.=149.670044m. Speed=7.812000m/h.</desc>
<speed>2.170000</speed>
</trkpt>
<trkpt lat="55.734589" lon="26.258097">
<ele>149.6</ele>
<time>2010-07-17T09:57:21Z</time>
<desc>lat.=55.734589, lon.=26.258097, Alt.=149.533325m. Speed=1.692000m/h.</desc>
<speed>0.470000</speed>
</trkpt>
<trkpt lat="55.734688" lon="26.257893">
<ele>149.0</ele>
<time>2010-07-17T10:02:36Z</time>
<desc>lat.=55.734688, lon.=26.257893, Alt.=152.564575m. Speed=3.816000m/h.</desc>
<speed>1.060000</speed>
</trkpt>
<trkpt lat="55.734577" lon="26.257629">
<ele>148.1</ele>
<time>2010-07-17T10:02:43Z</time>
<desc>lat.=55.734577, lon.=26.257629, Alt.=149.447388m. Speed=12.276000m/h.</desc>
<speed>3.410000</speed>
</trkpt>
<trkpt lat="55.734295" lon="26.257666">
<ele>146.5</ele>
<time>2010-07-17T10:02:54Z</time>
<desc>lat.=55.734295, lon.=26.257666, Alt.=146.576294m. Speed=7.128000m/h.</desc>
<speed>1.980000</speed>
</trkpt>
<trkpt lat="55.732895" lon="26.252882">
<ele>164.5</ele>
<time>2010-07-17T10:04:18Z</time>
<desc>lat.=55.732895, lon.=26.252882, Alt.=155.963013m. Speed=12.852000m/h.</desc>
<speed>3.570000</speed>
</trkpt>
<trkpt lat="55.731041" lon="26.245213">
<ele>156.9</ele>
<time>2010-07-17T10:06:31Z</time>
<desc>lat.=55.731041, lon.=26.245213, Alt.=164.927856m. Speed=1.188000m/h.</desc>
<speed>0.330000</speed>
</trkpt>
<trkpt lat="55.730408" lon="26.243872">
<ele>155.1</ele>
<time>2010-07-17T10:07:08Z</time>
<desc>lat.=55.730408, lon.=26.243872, Alt.=157.435669m. Speed=18.756001m/h.</desc>
<speed>5.210000</speed>
</trkpt>
<trkpt lat="55.729145" lon="26.243748">
<ele>150.6</ele>
<time>2010-07-17T10:07:59Z</time>
<desc>lat.=55.729145, lon.=26.243748, Alt.=150.798950m. Speed=0.936000m/h.</desc>
<speed>0.260000</speed>
</trkpt>
<trkpt lat="55.729565" lon="26.243608">
<ele>148.8</ele>
<time>2010-07-17T10:08:52Z</time>
<desc>lat.=55.729565, lon.=26.243608, Alt.=143.955200m. Speed=0.792000m/h.</desc>
<speed>0.220000</speed>
</trkpt>
<trkpt lat="55.729321" lon="26.244289">
<ele>149.6</ele>
<time>2010-07-17T10:22:26Z</time>
<desc>lat.=55.729321, lon.=26.244289, Alt.=166.548950m. Speed=0.072000m/h.</desc>
<speed>0.020000</speed>
</trkpt>
<trkpt lat="55.729530" lon="26.243881">
<ele>149.2</ele>
<time>2010-07-17T10:26:35Z</time>
<desc>lat.=55.729530, lon.=26.243881, Alt.=162.420044m. Speed=0.252000m/h.</desc>
<speed>0.070000</speed>
</trkpt>
<trkpt lat="55.729370" lon="26.243896">
<ele>148.8</ele>
<time>2010-07-17T10:32:00Z</time>
<desc>lat.=55.729370, lon.=26.243896, Alt.=166.880981m. Speed=0.216000m/h.</desc>
<speed>0.060000</speed>
</trkpt>
<trkpt lat="55.729336" lon="26.244059">
<ele>149.0</ele>
<time>2010-07-17T10:34:44Z</time>
<desc>lat.=55.729336, lon.=26.244059, Alt.=181.228638m. Speed=1.044000m/h.</desc>
<speed>0.290000</speed>
</trkpt>
<trkpt lat="55.730167" lon="26.244013">
<ele>151.7</ele>
<time>2010-07-17T10:36:37Z</time>
<desc>lat.=55.730167, lon.=26.244013, Alt.=162.349731m. Speed=8.532000m/h.</desc>
<speed>2.370000</speed>
</trkpt>
<trkpt lat="55.730820" lon="26.245783">
<ele>162.0</ele>
<time>2010-07-17T10:37:12Z</time>
<desc>lat.=55.730820, lon.=26.245783, Alt.=151.068481m. Speed=6.084000m/h.</desc>
<speed>1.690000</speed>
</trkpt>
<trkpt lat="55.730846" lon="26.246202">
<ele>161.7</ele>
<time>2010-07-17T10:37:24Z</time>
<desc>lat.=55.730846, lon.=26.246202, Alt.=154.720825m. Speed=1.116000m/h.</desc>
<speed>0.310000</speed>
</trkpt>
<trkpt lat="55.730904" lon="26.245939">
<ele>161.2</ele>
<time>2010-07-17T10:38:09Z</time>
<desc>lat.=55.730904, lon.=26.245939, Alt.=158.966919m. Speed=1.404000m/h.</desc>
<speed>0.390000</speed>
</trkpt>
<trkpt lat="55.731186" lon="26.245872">
<ele>157.7</ele>
<time>2010-07-17T10:39:48Z</time>
<desc>lat.=55.731186, lon.=26.245872, Alt.=178.123169m. Speed=0.504000m/h.</desc>
<speed>0.140000</speed>
</trkpt>
<trkpt lat="55.731071" lon="26.245214">
<ele>156.8</ele>
<time>2010-07-17T10:40:53Z</time>
<desc>lat.=55.731071, lon.=26.245214, Alt.=174.150513m. Speed=9.504000m/h.</desc>
<speed>2.640000</speed>
</trkpt>
<trkpt lat="55.731827" lon="26.244476">
<ele>154.5</ele>
<time>2010-07-17T10:41:14Z</time>
<desc>lat.=55.731827, lon.=26.244476, Alt.=160.017700m. Speed=12.240000m/h.</desc>
<speed>3.400000</speed>
</trkpt>
<trkpt lat="55.732182" lon="26.244549">
<ele>155.3</ele>
<time>2010-07-17T10:41:22Z</time>
<desc>lat.=55.732182, lon.=26.244549, Alt.=157.291138m. Speed=17.172001m/h.</desc>
<speed>4.770000</speed>
</trkpt>
<trkpt lat="55.732693" lon="26.245207">
<ele>156.5</ele>
<time>2010-07-17T10:41:40Z</time>
<desc>lat.=55.732693, lon.=26.245207, Alt.=158.791138m. Speed=13.212000m/h.</desc>
<speed>3.670000</speed>
</trkpt>
<trkpt lat="55.735073" lon="26.244806">
<ele>157.3</ele>
<time>2010-07-17T10:42:43Z</time>
<desc>lat.=55.735073, lon.=26.244806, Alt.=176.927856m. Speed=2.448000m/h.</desc>
<speed>0.680000</speed>
</trkpt>
<trkpt lat="55.735085" lon="26.242853">
<ele>149.0</ele>
<time>2010-07-17T10:43:20Z</time>
<desc>lat.=55.735085, lon.=26.242853, Alt.=168.263794m. Speed=15.732000m/h.</desc>
<speed>4.370000</speed>
</trkpt>
<trkpt lat="55.734356" lon="26.241222">
<ele>135.2</ele>
<time>2010-07-17T10:44:07Z</time>
<desc>lat.=55.734356, lon.=26.241222, Alt.=153.373169m. Speed=4.356000m/h.</desc>
<speed>1.210000</speed>
</trkpt>
<trkpt lat="55.735550" lon="26.239275">
<ele>131.9</ele>
<time>2010-07-17T10:45:02Z</time>
<desc>lat.=55.735550, lon.=26.239275, Alt.=133.427856m. Speed=9.828000m/h.</desc>
<speed>2.730000</speed>
</trkpt>
<trkpt lat="55.735855" lon="26.238327">
<ele>134.1</ele>
<time>2010-07-17T10:45:22Z</time>
<desc>lat.=55.735855, lon.=26.238327, Alt.=135.779419m. Speed=10.692000m/h.</desc>
<speed>2.970000</speed>
</trkpt>
<trkpt lat="55.735744" lon="26.234209">
<ele>132.0</ele>
<time>2010-07-17T10:46:50Z</time>
<desc>lat.=55.735744, lon.=26.234209, Alt.=121.536194m. Speed=13.572000m/h.</desc>
<speed>3.770000</speed>
</trkpt>
<trkpt lat="55.735985" lon="26.231949">
<ele>133.4</ele>
<time>2010-07-17T10:47:19Z</time>
<desc>lat.=55.735985, lon.=26.231949, Alt.=126.583069m. Speed=15.192000m/h.</desc>
<speed>4.220000</speed>
</trkpt>
<trkpt lat="55.735916" lon="26.231384">
<ele>135.9</ele>
<time>2010-07-17T10:47:28Z</time>
<desc>lat.=55.735916, lon.=26.231384, Alt.=130.556763m. Speed=12.168000m/h.</desc>
<speed>3.380000</speed>
</trkpt>
<trkpt lat="55.735035" lon="26.229389">
<ele>139.9</ele>
<time>2010-07-17T10:48:24Z</time>
<desc>lat.=55.735035, lon.=26.229389, Alt.=134.627075m. Speed=8.604000m/h.</desc>
<speed>2.390000</speed>
</trkpt>
<trkpt lat="55.734669" lon="26.229128">
<ele>140.5</ele>
<time>2010-07-17T10:48:41Z</time>
<desc>lat.=55.734669, lon.=26.229128, Alt.=137.806763m. Speed=8.568000m/h.</desc>
<speed>2.380000</speed>
</trkpt>
<trkpt lat="55.732388" lon="26.229719">
<ele>143.0</ele>
<time>2010-07-17T10:49:59Z</time>
<desc>lat.=55.732388, lon.=26.229719, Alt.=139.009888m. Speed=12.060000m/h.</desc>
<speed>3.350000</speed>
</trkpt>
<trkpt lat="55.732059" lon="26.230177">
<ele>147.3</ele>
<time>2010-07-17T10:50:15Z</time>
<desc>lat.=55.732059, lon.=26.230177, Alt.=138.713013m. Speed=3.492000m/h.</desc>
<speed>0.970000</speed>
</trkpt>
<trkpt lat="55.731659" lon="26.230177">
<ele>153.9</ele>
<time>2010-07-17T10:50:30Z</time>
<desc>lat.=55.731659, lon.=26.230177, Alt.=139.498169m. Speed=4.932000m/h.</desc>
<speed>1.370000</speed>
</trkpt>
<trkpt lat="55.731571" lon="26.230518">
<ele>154.2</ele>
<time>2010-07-17T10:50:50Z</time>
<desc>lat.=55.731571, lon.=26.230518, Alt.=136.197388m. Speed=3.276000m/h.</desc>
<speed>0.910000</speed>
</trkpt>
<trkpt lat="55.731544" lon="26.230343">
<ele>155.8</ele>
<time>2010-07-17T10:51:03Z</time>
<desc>lat.=55.731544, lon.=26.230343, Alt.=139.724731m. Speed=3.924000m/h.</desc>
<speed>1.090000</speed>
</trkpt>
<trkpt lat="55.731796" lon="26.230358">
<ele>150.0</ele>
<time>2010-07-17T10:51:18Z</time>
<desc>lat.=55.731796, lon.=26.230358, Alt.=143.068481m. Speed=23.364000m/h.</desc>
<speed>6.490000</speed>
</trkpt>
<trkpt lat="55.732368" lon="26.229813">
<ele>143.1</ele>
<time>2010-07-17T10:51:29Z</time>
<desc>lat.=55.732368, lon.=26.229813, Alt.=142.947388m. Speed=18.396000m/h.</desc>
<speed>5.110000</speed>
</trkpt>
<trkpt lat="55.734241" lon="26.229265">
<ele>140.7</ele>
<time>2010-07-17T10:52:27Z</time>
<desc>lat.=55.734241, lon.=26.229265, Alt.=142.279419m. Speed=1.404000m/h.</desc>
<speed>0.390000</speed>
</trkpt>
<trkpt lat="55.732430" lon="26.229725">
<ele>143.6</ele>
<time>2010-07-17T10:53:17Z</time>
<desc>lat.=55.732430, lon.=26.229725, Alt.=145.486450m. Speed=10.332000m/h.</desc>
<speed>2.870000</speed>
</trkpt>
<trkpt lat="55.731976" lon="26.230312">
<ele>148.2</ele>
<time>2010-07-17T10:53:30Z</time>
<desc>lat.=55.731976, lon.=26.230312, Alt.=147.525513m. Speed=8.784000m/h.</desc>
<speed>2.440000</speed>
</trkpt>
<trkpt lat="55.731689" lon="26.230371">
<ele>152.4</ele>
<time>2010-07-17T10:53:40Z</time>
<desc>lat.=55.731689, lon.=26.230371, Alt.=149.650513m. Speed=3.816000m/h.</desc>
<speed>1.060000</speed>
</trkpt>
<trkpt lat="55.731583" lon="26.231062">
<ele>150.1</ele>
<time>2010-07-17T10:53:55Z</time>
<desc>lat.=55.731583, lon.=26.231062, Alt.=149.709106m. Speed=5.904000m/h.</desc>
<speed>1.640000</speed>
</trkpt>
<trkpt lat="55.731430" lon="26.231438">
<ele>131.5</ele>
<time>2010-07-17T10:56:12Z</time>
<desc>lat.=55.731430, lon.=26.231438, Alt.=149.068481m. Speed=0.684000m/h.</desc>
<speed>0.190000</speed>
</trkpt>
<trkpt lat="55.731327" lon="26.231323">
<ele>136.5</ele>
<time>2010-07-17T10:59:07Z</time>
<desc>lat.=55.731327, lon.=26.231323, Alt.=153.568481m. Speed=0.108000m/h.</desc>
<speed>0.030000</speed>
</trkpt>
<trkpt lat="55.731525" lon="26.231564">
<ele>130.5</ele>
<time>2010-07-17T11:08:21Z</time>
<desc>lat.=55.731525, lon.=26.231564, Alt.=172.775513m. Speed=0.252000m/h.</desc>
<speed>0.070000</speed>
</trkpt>
<trkpt lat="55.731266" lon="26.231539">
<ele>130.5</ele>
<time>2010-07-17T11:26:22Z</time>
<desc>lat.=55.731266, lon.=26.231539, Alt.=148.986450m. Speed=0.180000m/h.</desc>
<speed>0.050000</speed>
</trkpt>
<trkpt lat="55.731457" lon="26.230669">
<ele>155.8</ele>
<time>2010-07-17T11:47:53Z</time>
<desc>lat.=55.731457, lon.=26.230669, Alt.=151.689575m. Speed=6.588000m/h.</desc>
<speed>1.830000</speed>
</trkpt>
<trkpt lat="55.732342" lon="26.229727">
<ele>143.0</ele>
<time>2010-07-17T11:48:11Z</time>
<desc>lat.=55.732342, lon.=26.229727, Alt.=145.494263m. Speed=17.604000m/h.</desc>
<speed>4.890000</speed>
</trkpt>
<trkpt lat="55.733326" lon="26.229631">
<ele>138.7</ele>
<time>2010-07-17T11:48:27Z</time>
<desc>lat.=55.733326, lon.=26.229631, Alt.=141.146606m. Speed=20.483999m/h.</desc>
<speed>5.690000</speed>
</trkpt>
<trkpt lat="55.734615" lon="26.229105">
<ele>140.2</ele>
<time>2010-07-17T11:49:00Z</time>
<desc>lat.=55.734615, lon.=26.229105, Alt.=137.869263m. Speed=18.143999m/h.</desc>
<speed>5.040000</speed>
</trkpt>
<trkpt lat="55.735096" lon="26.229416">
<ele>139.2</ele>
<time>2010-07-17T11:49:11Z</time>
<desc>lat.=55.735096, lon.=26.229416, Alt.=136.388794m. Speed=17.532000m/h.</desc>
<speed>4.870000</speed>
</trkpt>
<trkpt lat="55.736012" lon="26.231747">
<ele>133.8</ele>
<time>2010-07-17T11:49:46Z</time>
<desc>lat.=55.736012, lon.=26.231747, Alt.=143.755981m. Speed=20.124001m/h.</desc>
<speed>5.590000</speed>
</trkpt>
<trkpt lat="55.735760" lon="26.233955">
<ele>133.3</ele>
<time>2010-07-17T11:50:13Z</time>
<desc>lat.=55.735760, lon.=26.233955, Alt.=134.427856m. Speed=14.688000m/h.</desc>
<speed>4.080000</speed>
</trkpt>
<trkpt lat="55.735733" lon="26.238600">
<ele>132.8</ele>
<time>2010-07-17T11:51:04Z</time>
<desc>lat.=55.735733, lon.=26.238600, Alt.=128.736450m. Speed=19.548000m/h.</desc>
<speed>5.430000</speed>
</trkpt>
<trkpt lat="55.735836" lon="26.240097">
<ele>132.9</ele>
<time>2010-07-17T11:51:21Z</time>
<desc>lat.=55.735836, lon.=26.240097, Alt.=135.611450m. Speed=17.496000m/h.</desc>
<speed>4.860000</speed>
</trkpt>
<trkpt lat="55.736450" lon="26.241648">
<ele>143.4</ele>
<time>2010-07-17T11:52:08Z</time>
<desc>lat.=55.736450, lon.=26.241648, Alt.=144.646606m. Speed=8.352000m/h.</desc>
<speed>2.320000</speed>
</trkpt>
<trkpt lat="55.736626" lon="26.244642">
<ele>154.3</ele>
<time>2010-07-17T11:53:33Z</time>
<desc>lat.=55.736626, lon.=26.244642, Alt.=151.502075m. Speed=2.052000m/h.</desc>
<speed>0.570000</speed>
</trkpt>
<trkpt lat="55.738209" lon="26.244293">
<ele>154.4</ele>
<time>2010-07-17T11:54:15Z</time>
<desc>lat.=55.738209, lon.=26.244293, Alt.=144.052856m. Speed=22.788000m/h.</desc>
<speed>6.330000</speed>
</trkpt>
<trkpt lat="55.740768" lon="26.241711">
<ele>144.5</ele>
<time>2010-07-17T11:54:54Z</time>
<desc>lat.=55.740768, lon.=26.241711, Alt.=138.736450m. Speed=29.771999m/h.</desc>
<speed>8.270000</speed>
</trkpt>
<trkpt lat="55.742558" lon="26.236525">
<ele>145.6</ele>
<time>2010-07-17T11:55:50Z</time>
<desc>lat.=55.742558, lon.=26.236525, Alt.=142.103638m. Speed=26.063999m/h.</desc>
<speed>7.240000</speed>
</trkpt>
<trkpt lat="55.743633" lon="26.234119">
<ele>147.5</ele>
<time>2010-07-17T11:56:20Z</time>
<desc>lat.=55.743633, lon.=26.234119, Alt.=141.068481m. Speed=16.416000m/h.</desc>
<speed>4.560000</speed>
</trkpt>
<trkpt lat="55.756088" lon="26.222288">
<ele>159.5</ele>
<time>2010-07-17T12:00:39Z</time>
<desc>lat.=55.756088, lon.=26.222288, Alt.=158.095825m. Speed=21.167999m/h.</desc>
<speed>5.880000</speed>
</trkpt>
<trkpt lat="55.760700" lon="26.211201">
<ele>160.4</ele>
<time>2010-07-17T12:03:06Z</time>
<desc>lat.=55.760700, lon.=26.211201, Alt.=150.400513m. Speed=13.860000m/h.</desc>
<speed>3.850000</speed>
</trkpt>
<trkpt lat="55.761822" lon="26.212053">
<ele>161.4</ele>
<time>2010-07-17T12:04:00Z</time>
<desc>lat.=55.761822, lon.=26.212053, Alt.=156.271606m. Speed=14.652000m/h.</desc>
<speed>4.070000</speed>
</trkpt>
<trkpt lat="55.762783" lon="26.213842">
<ele>161.7</ele>
<time>2010-07-17T12:04:32Z</time>
<desc>lat.=55.762783, lon.=26.213842, Alt.=156.841919m. Speed=24.228001m/h.</desc>
<speed>6.730000</speed>
</trkpt>
<trkpt lat="55.763962" lon="26.214903">
<ele>162.4</ele>
<time>2010-07-17T12:04:55Z</time>
<desc>lat.=55.763962, lon.=26.214903, Alt.=157.029419m. Speed=22.968000m/h.</desc>
<speed>6.380000</speed>
</trkpt>
<trkpt lat="55.767101" lon="26.215929">
<ele>160.3</ele>
<time>2010-07-17T12:05:52Z</time>
<desc>lat.=55.767101, lon.=26.215929, Alt.=160.517700m. Speed=19.296000m/h.</desc>
<speed>5.360000</speed>
</trkpt>
<trkpt lat="55.768879" lon="26.216261">
<ele>157.9</ele>
<time>2010-07-17T12:06:19Z</time>
<desc>lat.=55.768879, lon.=26.216261, Alt.=153.615356m. Speed=25.128000m/h.</desc>
<speed>6.980000</speed>
</trkpt>
<trkpt lat="55.769585" lon="26.216021">
<ele>157.4</ele>
<time>2010-07-17T12:06:30Z</time>
<desc>lat.=55.769585, lon.=26.216021, Alt.=154.056763m. Speed=26.964001m/h.</desc>
<speed>7.490000</speed>
</trkpt>
<trkpt lat="55.770355" lon="26.216227">
<ele>162.2</ele>
<time>2010-07-17T12:06:46Z</time>
<desc>lat.=55.770355, lon.=26.216227, Alt.=143.326294m. Speed=18.504000m/h.</desc>
<speed>5.140000</speed>
</trkpt>
<trkpt lat="55.772533" lon="26.214737">
<ele>159.2</ele>
<time>2010-07-17T12:07:23Z</time>
<desc>lat.=55.772533, lon.=26.214737, Alt.=151.326294m. Speed=27.252001m/h.</desc>
<speed>7.570000</speed>
</trkpt>
<trkpt lat="55.773891" lon="26.214594">
<ele>161.0</ele>
<time>2010-07-17T12:07:45Z</time>
<desc>lat.=55.773891, lon.=26.214594, Alt.=150.548950m. Speed=23.507999m/h.</desc>
<speed>6.530000</speed>
</trkpt>
<trkpt lat="55.776531" lon="26.212782">
<ele>157.7</ele>
<time>2010-07-17T12:08:28Z</time>
<desc>lat.=55.776531, lon.=26.212782, Alt.=156.084106m. Speed=29.520000m/h.</desc>
<speed>8.200000</speed>
</trkpt>
<trkpt lat="55.778690" lon="26.209139">
<ele>156.9</ele>
<time>2010-07-17T12:09:17Z</time>
<desc>lat.=55.778690, lon.=26.209139, Alt.=156.740356m. Speed=27.827999m/h.</desc>
<speed>7.730000</speed>
</trkpt>
<trkpt lat="55.781746" lon="26.206041">
<ele>157.6</ele>
<time>2010-07-17T12:10:17Z</time>
<desc>lat.=55.781746, lon.=26.206041, Alt.=157.404419m. Speed=26.820000m/h.</desc>
<speed>7.450000</speed>
</trkpt>
<trkpt lat="55.782917" lon="26.204199">
<ele>160.5</ele>
<time>2010-07-17T12:10:47Z</time>
<desc>lat.=55.782917, lon.=26.204199, Alt.=159.943481m. Speed=13.824000m/h.</desc>
<speed>3.840000</speed>
</trkpt>
<trkpt lat="55.783459" lon="26.203770">
<ele>162.1</ele>
<time>2010-07-17T12:11:02Z</time>
<desc>lat.=55.783459, lon.=26.203770, Alt.=162.064575m. Speed=14.724000m/h.</desc>
<speed>4.090000</speed>
</trkpt>
<trkpt lat="55.785343" lon="26.203199">
<ele>160.0</ele>
<time>2010-07-17T12:11:35Z</time>
<desc>lat.=55.785343, lon.=26.203199, Alt.=160.603638m. Speed=24.156000m/h.</desc>
<speed>6.710000</speed>
</trkpt>
<trkpt lat="55.785851" lon="26.203323">
<ele>159.2</ele>
<time>2010-07-17T12:11:43Z</time>
<desc>lat.=55.785851, lon.=26.203323, Alt.=161.029419m. Speed=23.472000m/h.</desc>
<speed>6.520000</speed>
</trkpt>
<trkpt lat="55.787834" lon="26.204878">
<ele>158.1</ele>
<time>2010-07-17T12:12:26Z</time>
<desc>lat.=55.787834, lon.=26.204878, Alt.=162.209106m. Speed=37.043999m/h.</desc>
<speed>10.290000</speed>
</trkpt>
<trkpt lat="55.788952" lon="26.206688">
<ele>161.6</ele>
<time>2010-07-17T12:12:46Z</time>
<desc>lat.=55.788952, lon.=26.206688, Alt.=157.431763m. Speed=15.408000m/h.</desc>
<speed>4.280000</speed>
</trkpt>
<trkpt lat="55.789364" lon="26.207039">
<ele>162.2</ele>
<time>2010-07-17T12:12:56Z</time>
<desc>lat.=55.789364, lon.=26.207039, Alt.=157.396606m. Speed=21.384001m/h.</desc>
<speed>5.940000</speed>
</trkpt>
<trkpt lat="55.791698" lon="26.205927">
<ele>156.8</ele>
<time>2010-07-17T12:13:42Z</time>
<desc>lat.=55.791698, lon.=26.205927, Alt.=153.252075m. Speed=24.983999m/h.</desc>
<speed>6.940000</speed>
</trkpt>
<trkpt lat="55.793934" lon="26.206745">
<ele>158.7</ele>
<time>2010-07-17T12:14:29Z</time>
<desc>lat.=55.793934, lon.=26.206745, Alt.=154.908325m. Speed=15.516000m/h.</desc>
<speed>4.310000</speed>
</trkpt>
<trkpt lat="55.794525" lon="26.206169">
<ele>161.3</ele>
<time>2010-07-17T12:14:46Z</time>
<desc>lat.=55.794525, lon.=26.206169, Alt.=157.513794m. Speed=16.632000m/h.</desc>
<speed>4.620000</speed>
</trkpt>
<trkpt lat="55.795895" lon="26.204153">
<ele>156.9</ele>
<time>2010-07-17T12:15:14Z</time>
<desc>lat.=55.795895, lon.=26.204153, Alt.=157.420044m. Speed=34.164001m/h.</desc>
<speed>9.490000</speed>
</trkpt>
<trkpt lat="55.797611" lon="26.203472">
<ele>153.9</ele>
<time>2010-07-17T12:15:33Z</time>
<desc>lat.=55.797611, lon.=26.203472, Alt.=150.857544m. Speed=40.068001m/h.</desc>
<speed>11.130000</speed>
</trkpt>
<trkpt lat="55.799255" lon="26.202435">
<ele>156.3</ele>
<time>2010-07-17T12:15:55Z</time>
<desc>lat.=55.799255, lon.=26.202435, Alt.=150.838013m. Speed=28.115999m/h.</desc>
<speed>7.810000</speed>
</trkpt>
<trkpt lat="55.799858" lon="26.201817">
<ele>156.3</ele>
<time>2010-07-17T12:16:06Z</time>
<desc>lat.=55.799858, lon.=26.201817, Alt.=152.392700m. Speed=20.232000m/h.</desc>
<speed>5.620000</speed>
</trkpt>
<trkpt lat="55.802929" lon="26.195784">
<ele>154.1</ele>
<time>2010-07-17T12:18:06Z</time>
<desc>lat.=55.802929, lon.=26.195784, Alt.=151.396606m. Speed=21.420000m/h.</desc>
<speed>5.950000</speed>
</trkpt>
<trkpt lat="55.803116" lon="26.195091">
<ele>155.5</ele>
<time>2010-07-17T12:18:14Z</time>
<desc>lat.=55.803116, lon.=26.195091, Alt.=152.213013m. Speed=18.504000m/h.</desc>
<speed>5.140000</speed>
</trkpt>
<trkpt lat="55.803173" lon="26.193535">
<ele>157.7</ele>
<time>2010-07-17T12:18:36Z</time>
<desc>lat.=55.803173, lon.=26.193535, Alt.=152.377075m. Speed=12.132000m/h.</desc>
<speed>3.370000</speed>
</trkpt>
<trkpt lat="55.803825" lon="26.192341">
<ele>157.3</ele>
<time>2010-07-17T12:18:59Z</time>
<desc>lat.=55.803825, lon.=26.192341, Alt.=152.076294m. Speed=22.896000m/h.</desc>
<speed>6.360000</speed>
</trkpt>
<trkpt lat="55.805351" lon="26.191347">
<ele>162.8</ele>
<time>2010-07-17T12:19:35Z</time>
<desc>lat.=55.805351, lon.=26.191347, Alt.=154.431763m. Speed=15.588000m/h.</desc>
<speed>4.330000</speed>
</trkpt>
<trkpt lat="55.810085" lon="26.189589">
<ele>162.9</ele>
<time>2010-07-17T12:20:46Z</time>
<desc>lat.=55.810085, lon.=26.189589, Alt.=150.830200m. Speed=19.403999m/h.</desc>
<speed>5.390000</speed>
</trkpt>
<trkpt lat="55.811184" lon="26.189796">
<ele>159.6</ele>
<time>2010-07-17T12:21:06Z</time>
<desc>lat.=55.811184, lon.=26.189796, Alt.=158.498169m. Speed=20.556000m/h.</desc>
<speed>5.710000</speed>
</trkpt>
<trkpt lat="55.813625" lon="26.190849">
<ele>151.5</ele>
<time>2010-07-17T12:21:37Z</time>
<desc>lat.=55.813625, lon.=26.190849, Alt.=159.759888m. Speed=42.480000m/h.</desc>
<speed>11.800000</speed>
</trkpt>
<trkpt lat="55.815125" lon="26.192373">
<ele>156.2</ele>
<time>2010-07-17T12:21:58Z</time>
<desc>lat.=55.815125, lon.=26.192373, Alt.=156.728638m. Speed=27.792000m/h.</desc>
<speed>7.720000</speed>
</trkpt>
<trkpt lat="55.815746" lon="26.193415">
<ele>164.3</ele>
<time>2010-07-17T12:22:14Z</time>
<desc>lat.=55.815746, lon.=26.193415, Alt.=156.502075m. Speed=6.768000m/h.</desc>
<speed>1.880000</speed>
</trkpt>
<trkpt lat="55.816219" lon="26.195330">
<ele>160.5</ele>
<time>2010-07-17T12:22:43Z</time>
<desc>lat.=55.816219, lon.=26.195330, Alt.=158.802856m. Speed=13.284000m/h.</desc>
<speed>3.690000</speed>
</trkpt>
<trkpt lat="55.816284" lon="26.196478">
<ele>155.1</ele>
<time>2010-07-17T12:22:57Z</time>
<desc>lat.=55.816284, lon.=26.196478, Alt.=155.689575m. Speed=28.764000m/h.</desc>
<speed>7.990000</speed>
</trkpt>
<trkpt lat="55.816616" lon="26.198175">
<ele>158.0</ele>
<time>2010-07-17T12:23:09Z</time>
<desc>lat.=55.816616, lon.=26.198175, Alt.=154.486450m. Speed=24.804001m/h.</desc>
<speed>6.890000</speed>
</trkpt>
<trkpt lat="55.817444" lon="26.199215">
<ele>155.5</ele>
<time>2010-07-17T12:23:21Z</time>
<desc>lat.=55.817444, lon.=26.199215, Alt.=152.857544m. Speed=32.652000m/h.</desc>
<speed>9.070000</speed>
</trkpt>
<trkpt lat="55.818138" lon="26.200571">
<ele>160.9</ele>
<time>2010-07-17T12:23:37Z</time>
<desc>lat.=55.818138, lon.=26.200571, Alt.=149.423950m. Speed=21.132000m/h.</desc>
<speed>5.870000</speed>
</trkpt>
<trkpt lat="55.819973" lon="26.202051">
<ele>164.3</ele>
<time>2010-07-17T12:24:47Z</time>
<desc>lat.=55.819973, lon.=26.202051, Alt.=157.572388m. Speed=7.272000m/h.</desc>
<speed>2.020000</speed>
</trkpt>
<trkpt lat="55.820431" lon="26.204178">
<ele>153.1</ele>
<time>2010-07-17T12:30:11Z</time>
<desc>lat.=55.820431, lon.=26.204178, Alt.=161.935669m. Speed=40.680000m/h.</desc>
<speed>11.300000</speed>
</trkpt>
<trkpt lat="55.820869" lon="26.207701">
<ele>148.1</ele>
<time>2010-07-17T12:30:32Z</time>
<desc>lat.=55.820869, lon.=26.207701, Alt.=158.541138m. Speed=40.104000m/h.</desc>
<speed>11.140000</speed>
</trkpt>
<trkpt lat="55.821651" lon="26.210480">
<ele>145.4</ele>
<time>2010-07-17T12:30:59Z</time>
<desc>lat.=55.821651, lon.=26.210480, Alt.=149.892700m. Speed=16.452000m/h.</desc>
<speed>4.570000</speed>
</trkpt>
<trkpt lat="55.822102" lon="26.211329">
<ele>148.4</ele>
<time>2010-07-17T12:31:14Z</time>
<desc>lat.=55.822102, lon.=26.211329, Alt.=148.642700m. Speed=12.240000m/h.</desc>
<speed>3.400000</speed>
</trkpt>
<trkpt lat="55.823307" lon="26.212063">
<ele>143.2</ele>
<time>2010-07-17T12:31:41Z</time>
<desc>lat.=55.823307, lon.=26.212063, Alt.=151.150513m. Speed=23.544001m/h.</desc>
<speed>6.540000</speed>
</trkpt>
<trkpt lat="55.823547" lon="26.212423">
<ele>143.0</ele>
<time>2010-07-17T12:31:47Z</time>
<desc>lat.=55.823547, lon.=26.212423, Alt.=151.423950m. Speed=20.052000m/h.</desc>
<speed>5.570000</speed>
</trkpt>
<trkpt lat="55.823456" lon="26.213848">
<ele>143.7</ele>
<time>2010-07-17T12:32:06Z</time>
<desc>lat.=55.823456, lon.=26.213848, Alt.=145.709106m. Speed=19.332001m/h.</desc>
<speed>5.370000</speed>
</trkpt>
<trkpt lat="55.822933" lon="26.215439">
<ele>143.2</ele>
<time>2010-07-17T12:32:33Z</time>
<desc>lat.=55.822933, lon.=26.215439, Alt.=142.076294m. Speed=22.392000m/h.</desc>
<speed>6.220000</speed>
</trkpt>
<trkpt lat="55.823471" lon="26.217754">
<ele>144.4</ele>
<time>2010-07-17T12:33:08Z</time>
<desc>lat.=55.823471, lon.=26.217754, Alt.=138.443481m. Speed=12.348000m/h.</desc>
<speed>3.430000</speed>
</trkpt>
<trkpt lat="55.823944" lon="26.217934">
<ele>144.8</ele>
<time>2010-07-17T12:33:16Z</time>
<desc>lat.=55.823944, lon.=26.217934, Alt.=140.845825m. Speed=24.912001m/h.</desc>
<speed>6.920000</speed>
</trkpt>
<trkpt lat="55.825146" lon="26.216814">
<ele>145.6</ele>
<time>2010-07-17T12:33:49Z</time>
<desc>lat.=55.825146, lon.=26.216814, Alt.=144.197388m. Speed=8.244000m/h.</desc>
<speed>2.290000</speed>
</trkpt>
<trkpt lat="55.825497" lon="26.216805">
<ele>144.6</ele>
<time>2010-07-17T12:34:03Z</time>
<desc>lat.=55.825497, lon.=26.216805, Alt.=145.966919m. Speed=11.340000m/h.</desc>
<speed>3.150000</speed>
</trkpt>
<trkpt lat="55.826149" lon="26.218508">
<ele>146.7</ele>
<time>2010-07-17T12:34:29Z</time>
<desc>lat.=55.826149, lon.=26.218508, Alt.=147.470825m. Speed=14.508000m/h.</desc>
<speed>4.030000</speed>
</trkpt>
<trkpt lat="55.826710" lon="26.219288">
<ele>149.1</ele>
<time>2010-07-17T12:34:46Z</time>
<desc>lat.=55.826710, lon.=26.219288, Alt.=148.291138m. Speed=26.100000m/h.</desc>
<speed>7.250000</speed>
</trkpt>
<trkpt lat="55.827106" lon="26.219496">
<ele>149.0</ele>
<time>2010-07-17T12:34:54Z</time>
<desc>lat.=55.827106, lon.=26.219496, Alt.=147.505981m. Speed=14.472000m/h.</desc>
<speed>4.020000</speed>
</trkpt>
<trkpt lat="55.828079" lon="26.218801">
<ele>149.1</ele>
<time>2010-07-17T12:35:31Z</time>
<desc>lat.=55.828079, lon.=26.218801, Alt.=147.380981m. Speed=1.584000m/h.</desc>
<speed>0.440000</speed>
</trkpt>
<trkpt lat="55.829765" lon="26.218426">
<ele>153.4</ele>
<time>2010-07-17T12:36:38Z</time>
<desc>lat.=55.829765, lon.=26.218426, Alt.=143.068481m. Speed=15.696000m/h.</desc>
<speed>4.360000</speed>
</trkpt>
<trkpt lat="55.829975" lon="26.217403">
<ele>161.7</ele>
<time>2010-07-17T12:37:54Z</time>
<desc>lat.=55.829975, lon.=26.217403, Alt.=137.463013m. Speed=1.044000m/h.</desc>
<speed>0.290000</speed>
</trkpt>
<trkpt lat="55.829884" lon="26.217543">
<ele>161.4</ele>
<time>2010-07-17T12:40:04Z</time>
<desc>lat.=55.829884, lon.=26.217543, Alt.=138.595825m. Speed=0.216000m/h.</desc>
<speed>0.060000</speed>
</trkpt>
<trkpt lat="55.830017" lon="26.217520">
<ele>160.1</ele>
<time>2010-07-17T12:42:03Z</time>
<desc>lat.=55.830017, lon.=26.217520, Alt.=149.713013m. Speed=0.900000m/h.</desc>
<speed>0.250000</speed>
</trkpt>
<trkpt lat="55.829922" lon="26.217430">
<ele>162.0</ele>
<time>2010-07-17T12:45:10Z</time>
<desc>lat.=55.829922, lon.=26.217430, Alt.=154.509888m. Speed=0.720000m/h.</desc>
<speed>0.200000</speed>
</trkpt>
<trkpt lat="55.830090" lon="26.217560">
<ele>158.8</ele>
<time>2010-07-17T12:48:31Z</time>
<desc>lat.=55.830090, lon.=26.217560, Alt.=160.927856m. Speed=0.648000m/h.</desc>
<speed>0.180000</speed>
</trkpt>
<trkpt lat="55.829952" lon="26.217388">
<ele>162.1</ele>
<time>2010-07-17T12:54:47Z</time>
<desc>lat.=55.829952, lon.=26.217388, Alt.=161.896606m. Speed=0.792000m/h.</desc>
<speed>0.220000</speed>
</trkpt>
<trkpt lat="55.830048" lon="26.217466">
<ele>160.2</ele>
<time>2010-07-17T12:55:17Z</time>
<desc>lat.=55.830048, lon.=26.217466, Alt.=160.795044m. Speed=2.664000m/h.</desc>
<speed>0.740000</speed>
</trkpt>
<trkpt lat="55.829853" lon="26.217569">
<ele>161.3</ele>
<time>2010-07-17T12:56:09Z</time>
<desc>lat.=55.829853, lon.=26.217569, Alt.=163.365356m. Speed=0.792000m/h.</desc>
<speed>0.220000</speed>
</trkpt>
<trkpt lat="55.830017" lon="26.216200">
<ele>158.0</ele>
<time>2010-07-17T12:57:07Z</time>
<desc>lat.=55.830017, lon.=26.216200, Alt.=164.755981m. Speed=14.760000m/h.</desc>
<speed>4.100000</speed>
</trkpt>
<trkpt lat="55.829891" lon="26.213175">
<ele>148.2</ele>
<time>2010-07-17T12:57:38Z</time>
<desc>lat.=55.829891, lon.=26.213175, Alt.=165.638794m. Speed=14.724000m/h.</desc>
<speed>4.090000</speed>
</trkpt>
<trkpt lat="55.829636" lon="26.210894">
<ele>153.6</ele>
<time>2010-07-17T12:58:31Z</time>
<desc>lat.=55.829636, lon.=26.210894, Alt.=170.037231m. Speed=4.500000m/h.</desc>
<speed>1.250000</speed>
</trkpt>
<trkpt lat="55.829720" lon="26.210484">
<ele>156.4</ele>
<time>2010-07-17T12:58:59Z</time>
<desc>lat.=55.829720, lon.=26.210484, Alt.=168.888794m. Speed=0.792000m/h.</desc>
<speed>0.220000</speed>
</trkpt>
<trkpt lat="55.829445" lon="26.209011">
<ele>146.8</ele>
<time>2010-07-17T12:59:44Z</time>
<desc>lat.=55.829445, lon.=26.209011, Alt.=161.724731m. Speed=11.052000m/h.</desc>
<speed>3.070000</speed>
</trkpt>
<trkpt lat="55.829609" lon="26.207335">
<ele>145.7</ele>
<time>2010-07-17T13:00:10Z</time>
<desc>lat.=55.829609, lon.=26.207335, Alt.=155.775513m. Speed=10.944000m/h.</desc>
<speed>3.040000</speed>
</trkpt>
<trkpt lat="55.829620" lon="26.204493">
<ele>159.9</ele>
<time>2010-07-17T13:00:54Z</time>
<desc>lat.=55.829620, lon.=26.204493, Alt.=147.697388m. Speed=6.228000m/h.</desc>
<speed>1.730000</speed>
</trkpt>
<trkpt lat="55.828968" lon="26.202141">
<ele>167.1</ele>
<time>2010-07-17T13:01:14Z</time>
<desc>lat.=55.828968, lon.=26.202141, Alt.=154.013794m. Speed=3.636000m/h.</desc>
<speed>1.010000</speed>
</trkpt>
<trkpt lat="55.829063" lon="26.201553">
<ele>167.1</ele>
<time>2010-07-17T13:01:41Z</time>
<desc>lat.=55.829063, lon.=26.201553, Alt.=165.384888m. Speed=4.428000m/h.</desc>
<speed>1.230000</speed>
</trkpt>
<trkpt lat="55.828793" lon="26.197420">
<ele>170.9</ele>
<time>2010-07-17T13:03:56Z</time>
<desc>lat.=55.828793, lon.=26.197420, Alt.=154.177856m. Speed=0.288000m/h.</desc>
<speed>0.080000</speed>
</trkpt>
<trkpt lat="55.829380" lon="26.197056">
<ele>180.2</ele>
<time>2010-07-17T13:04:24Z</time>
<desc>lat.=55.829380, lon.=26.197056, Alt.=160.951294m. Speed=3.960000m/h.</desc>
<speed>1.100000</speed>
</trkpt>
<trkpt lat="55.830528" lon="26.197056">
<ele>176.7</ele>
<time>2010-07-17T13:04:57Z</time>
<desc>lat.=55.830528, lon.=26.197056, Alt.=172.412231m. Speed=3.888000m/h.</desc>
<speed>1.080000</speed>
</trkpt>
<trkpt lat="55.831829" lon="26.197847">
<ele>168.8</ele>
<time>2010-07-17T13:08:46Z</time>
<desc>lat.=55.831829, lon.=26.197847, Alt.=171.584106m. Speed=0.072000m/h.</desc>
<speed>0.020000</speed>
</trkpt>
<trkpt lat="55.831417" lon="26.197699">
<ele>180.9</ele>
<time>2010-07-17T13:11:24Z</time>
<desc>lat.=55.831417, lon.=26.197699, Alt.=177.638794m. Speed=5.796000m/h.</desc>
<speed>1.610000</speed>
</trkpt>
<trkpt lat="55.830975" lon="26.196884">
<ele>180.3</ele>
<time>2010-07-17T13:11:48Z</time>
<desc>lat.=55.830975, lon.=26.196884, Alt.=192.236450m. Speed=5.652000m/h.</desc>
<speed>1.570000</speed>
</trkpt>
<trkpt lat="55.829220" lon="26.196671">
<ele>177.7</ele>
<time>2010-07-17T13:12:30Z</time>
<desc>lat.=55.829220, lon.=26.196671, Alt.=213.287231m. Speed=4.968000m/h.</desc>
<speed>1.380000</speed>
</trkpt>
<trkpt lat="55.828926" lon="26.195692">
<ele>170.7</ele>
<time>2010-07-17T13:12:50Z</time>
<desc>lat.=55.828926, lon.=26.195692, Alt.=213.666138m. Speed=5.580000m/h.</desc>
<speed>1.550000</speed>
</trkpt>
<trkpt lat="55.828888" lon="26.192087">
<ele>160.9</ele>
<time>2010-07-17T13:13:51Z</time>
<desc>lat.=55.828888, lon.=26.192087, Alt.=194.111450m. Speed=12.420000m/h.</desc>
<speed>3.450000</speed>
</trkpt>
<trkpt lat="55.828217" lon="26.189623">
<ele>155.3</ele>
<time>2010-07-17T13:14:50Z</time>
<desc>lat.=55.828217, lon.=26.189623, Alt.=167.322388m. Speed=22.572001m/h.</desc>
<speed>6.270000</speed>
</trkpt>
<trkpt lat="55.828579" lon="26.186838">
<ele>154.2</ele>
<time>2010-07-17T13:15:17Z</time>
<desc>lat.=55.828579, lon.=26.186838, Alt.=154.314575m. Speed=20.016001m/h.</desc>
<speed>5.560000</speed>
</trkpt>
<trkpt lat="55.828453" lon="26.186001">
<ele>165.7</ele>
<time>2010-07-17T13:15:32Z</time>
<desc>lat.=55.828453, lon.=26.186001, Alt.=151.588013m. Speed=6.768000m/h.</desc>
<speed>1.880000</speed>
</trkpt>
<trkpt lat="55.828648" lon="26.184454">
<ele>170.4</ele>
<time>2010-07-17T13:15:56Z</time>
<desc>lat.=55.828648, lon.=26.184454, Alt.=149.353638m. Speed=10.872000m/h.</desc>
<speed>3.020000</speed>
</trkpt>
<trkpt lat="55.828499" lon="26.182713">
<ele>162.5</ele>
<time>2010-07-17T13:16:21Z</time>
<desc>lat.=55.828499, lon.=26.182713, Alt.=157.509888m. Speed=7.308000m/h.</desc>
<speed>2.030000</speed>
</trkpt>
<trkpt lat="55.829033" lon="26.181345">
<ele>166.5</ele>
<time>2010-07-17T13:16:50Z</time>
<desc>lat.=55.829033, lon.=26.181345, Alt.=158.986450m. Speed=8.208000m/h.</desc>
<speed>2.280000</speed>
</trkpt>
<trkpt lat="55.830647" lon="26.178976">
<ele>166.8</ele>
<time>2010-07-17T13:17:42Z</time>
<desc>lat.=55.830647, lon.=26.178976, Alt.=157.470825m. Speed=11.052000m/h.</desc>
<speed>3.070000</speed>
</trkpt>
<trkpt lat="55.832050" lon="26.177923">
<ele>169.0</ele>
<time>2010-07-17T13:18:17Z</time>
<desc>lat.=55.832050, lon.=26.177923, Alt.=161.209106m. Speed=18.972000m/h.</desc>
<speed>5.270000</speed>
</trkpt>
<trkpt lat="55.833588" lon="26.177511">
<ele>161.8</ele>
<time>2010-07-17T13:18:44Z</time>
<desc>lat.=55.833588, lon.=26.177511, Alt.=179.072388m. Speed=20.412001m/h.</desc>
<speed>5.670000</speed>
</trkpt>
<trkpt lat="55.834316" lon="26.176830">
<ele>160.3</ele>
<time>2010-07-17T13:18:59Z</time>
<desc>lat.=55.834316, lon.=26.176830, Alt.=176.068481m. Speed=19.656000m/h.</desc>
<speed>5.460000</speed>
</trkpt>
<trkpt lat="55.834808" lon="26.175823">
<ele>155.1</ele>
<time>2010-07-17T13:19:11Z</time>
<desc>lat.=55.834808, lon.=26.175823, Alt.=171.584106m. Speed=18.576000m/h.</desc>
<speed>5.160000</speed>
</trkpt>
<trkpt lat="55.834702" lon="26.174757">
<ele>161.0</ele>
<time>2010-07-17T13:19:26Z</time>
<desc>lat.=55.834702, lon.=26.174757, Alt.=169.209106m. Speed=14.940000m/h.</desc>
<speed>4.150000</speed>
</trkpt>
<trkpt lat="55.834957" lon="26.173449">
<ele>159.6</ele>
<time>2010-07-17T13:19:44Z</time>
<desc>lat.=55.834957, lon.=26.173449, Alt.=176.685669m. Speed=15.372000m/h.</desc>
<speed>4.270000</speed>
</trkpt>
<trkpt lat="55.835999" lon="26.171598">
<ele>159.4</ele>
<time>2010-07-17T13:20:27Z</time>
<desc>lat.=55.835999, lon.=26.171598, Alt.=178.529419m. Speed=8.532000m/h.</desc>
<speed>2.370000</speed>
</trkpt>
<trkpt lat="55.837147" lon="26.165884">
<ele>164.0</ele>
<time>2010-07-17T13:21:48Z</time>
<desc>lat.=55.837147, lon.=26.165884, Alt.=182.943481m. Speed=23.256001m/h.</desc>
<speed>6.460000</speed>
</trkpt>
<trkpt lat="55.836193" lon="26.163082">
<ele>176.2</ele>
<time>2010-07-17T13:22:38Z</time>
<desc>lat.=55.836193, lon.=26.163082, Alt.=216.638794m. Speed=8.532000m/h.</desc>
<speed>2.370000</speed>
</trkpt>
<trkpt lat="55.836002" lon="26.161392">
<ele>173.1</ele>
<time>2010-07-17T13:23:02Z</time>
<desc>lat.=55.836002, lon.=26.161392, Alt.=229.470825m. Speed=6.840000m/h.</desc>
<speed>1.900000</speed>
</trkpt>
<trkpt lat="55.834911" lon="26.157503">
<ele>174.2</ele>
<time>2010-07-17T13:24:30Z</time>
<desc>lat.=55.834911, lon.=26.157503, Alt.=198.810669m. Speed=18.504000m/h.</desc>
<speed>5.140000</speed>
</trkpt>
<trkpt lat="55.834976" lon="26.156322">
<ele>175.0</ele>
<time>2010-07-17T13:24:43Z</time>
<desc>lat.=55.834976, lon.=26.156322, Alt.=187.689575m. Speed=21.743999m/h.</desc>
<speed>6.040000</speed>
</trkpt>
<trkpt lat="55.835815" lon="26.154346">
<ele>174.0</ele>
<time>2010-07-17T13:25:10Z</time>
<desc>lat.=55.835815, lon.=26.154346, Alt.=173.759888m. Speed=23.327999m/h.</desc>
<speed>6.480000</speed>
</trkpt>
<trkpt lat="55.835915" lon="26.150597">
<ele>156.5</ele>
<time>2010-07-17T13:26:06Z</time>
<desc>lat.=55.835915, lon.=26.150597, Alt.=152.338013m. Speed=30.708000m/h.</desc>
<speed>8.530000</speed>
</trkpt>
<trkpt lat="55.835484" lon="26.147888">
<ele>154.7</ele>
<time>2010-07-17T13:26:32Z</time>
<desc>lat.=55.835484, lon.=26.147888, Alt.=154.998169m. Speed=18.360001m/h.</desc>
<speed>5.100000</speed>
</trkpt>
<trkpt lat="55.833965" lon="26.144598">
<ele>156.1</ele>
<time>2010-07-17T13:27:18Z</time>
<desc>lat.=55.833965, lon.=26.144598, Alt.=149.177856m. Speed=25.236000m/h.</desc>
<speed>7.010000</speed>
</trkpt>
<trkpt lat="55.832085" lon="26.139387">
<ele>157.4</ele>
<time>2010-07-17T13:28:27Z</time>
<desc>lat.=55.832085, lon.=26.139387, Alt.=175.603638m. Speed=19.080000m/h.</desc>
<speed>5.300000</speed>
</trkpt>
<trkpt lat="55.831570" lon="26.135405">
<ele>158.4</ele>
<time>2010-07-17T13:29:16Z</time>
<desc>lat.=55.831570, lon.=26.135405, Alt.=157.271606m. Speed=12.204000m/h.</desc>
<speed>3.390000</speed>
</trkpt>
<trkpt lat="55.827126" lon="26.136259">
<ele>168.2</ele>
<time>2010-07-17T13:31:20Z</time>
<desc>lat.=55.827126, lon.=26.136259, Alt.=164.552856m. Speed=17.856001m/h.</desc>
<speed>4.960000</speed>
</trkpt>
<trkpt lat="55.821014" lon="26.136242">
<ele>173.0</ele>
<time>2010-07-17T13:38:36Z</time>
<desc>lat.=55.821014, lon.=26.136242, Alt.=173.271606m. Speed=0.108000m/h.</desc>
<speed>0.030000</speed>
</trkpt>
<trkpt lat="55.826038" lon="26.136383">
<ele>166.4</ele>
<time>2010-07-17T13:42:24Z</time>
<desc>lat.=55.826038, lon.=26.136383, Alt.=166.384888m. Speed=20.195999m/h.</desc>
<speed>5.610000</speed>
</trkpt>
<trkpt lat="55.829712" lon="26.135942">
<ele>157.5</ele>
<time>2010-07-17T13:43:23Z</time>
<desc>lat.=55.829712, lon.=26.135942, Alt.=157.166138m. Speed=39.312000m/h.</desc>
<speed>10.920000</speed>
</trkpt>
<trkpt lat="55.840248" lon="26.133053">
<ele>149.0</ele>
<time>2010-07-17T13:45:52Z</time>
<desc>lat.=55.840248, lon.=26.133053, Alt.=151.474731m. Speed=34.703999m/h.</desc>
<speed>9.640000</speed>
</trkpt>
<trkpt lat="55.841007" lon="26.132542">
<ele>148.7</ele>
<time>2010-07-17T13:46:01Z</time>
<desc>lat.=55.841007, lon.=26.132542, Alt.=148.896606m. Speed=30.924000m/h.</desc>
<speed>8.590000</speed>
</trkpt>
<trkpt lat="55.841763" lon="26.131212">
<ele>144.4</ele>
<time>2010-07-17T13:46:15Z</time>
<desc>lat.=55.841763, lon.=26.131212, Alt.=147.705200m. Speed=27.684000m/h.</desc>
<speed>7.690000</speed>
</trkpt>
<trkpt lat="55.842548" lon="26.128616">
<ele>146.2</ele>
<time>2010-07-17T13:46:42Z</time>
<desc>lat.=55.842548, lon.=26.128616, Alt.=144.513794m. Speed=21.672001m/h.</desc>
<speed>6.020000</speed>
</trkpt>
<trkpt lat="55.842278" lon="26.126173">
<ele>145.0</ele>
<time>2010-07-17T13:47:08Z</time>
<desc>lat.=55.842278, lon.=26.126173, Alt.=141.947388m. Speed=20.520000m/h.</desc>
<speed>5.700000</speed>
</trkpt>
<trkpt lat="55.840935" lon="26.123665">
<ele>146.2</ele>
<time>2010-07-17T13:47:43Z</time>
<desc>lat.=55.840935, lon.=26.123665, Alt.=144.127075m. Speed=25.992001m/h.</desc>
<speed>7.220000</speed>
</trkpt>
<trkpt lat="55.838284" lon="26.120159">
<ele>148.3</ele>
<time>2010-07-17T13:48:42Z</time>
<desc>lat.=55.838284, lon.=26.120159, Alt.=138.541138m. Speed=18.035999m/h.</desc>
<speed>5.010000</speed>
</trkpt>
<trkpt lat="55.837605" lon="26.118345">
<ele>152.4</ele>
<time>2010-07-17T13:49:21Z</time>
<desc>lat.=55.837605, lon.=26.118345, Alt.=165.900513m. Speed=9.648000m/h.</desc>
<speed>2.680000</speed>
</trkpt>
<trkpt lat="55.837437" lon="26.117420">
<ele>151.5</ele>
<time>2010-07-17T13:50:15Z</time>
<desc>lat.=55.837437, lon.=26.117420, Alt.=159.420044m. Speed=1.332000m/h.</desc>
<speed>0.370000</speed>
</trkpt>
<trkpt lat="55.836926" lon="26.117289">
<ele>149.4</ele>
<time>2010-07-17T13:50:51Z</time>
<desc>lat.=55.836926, lon.=26.117289, Alt.=151.146606m. Speed=0.180000m/h.</desc>
<speed>0.050000</speed>
</trkpt>
<trkpt lat="55.837334" lon="26.117300">
<ele>151.2</ele>
<time>2010-07-17T13:52:06Z</time>
<desc>lat.=55.837334, lon.=26.117300, Alt.=150.939575m. Speed=13.068000m/h.</desc>
<speed>3.630000</speed>
</trkpt>
<trkpt lat="55.837109" lon="26.113642">
<ele>156.9</ele>
<time>2010-07-17T13:52:39Z</time>
<desc>lat.=55.837109, lon.=26.113642, Alt.=146.423950m. Speed=31.104000m/h.</desc>
<speed>8.640000</speed>
</trkpt>
<trkpt lat="55.837440" lon="26.108450">
<ele>157.7</ele>
<time>2010-07-17T13:53:26Z</time>
<desc>lat.=55.837440, lon.=26.108450, Alt.=149.963013m. Speed=20.879999m/h.</desc>
<speed>5.800000</speed>
</trkpt>
<trkpt lat="55.836018" lon="26.095253">
<ele>152.6</ele>
<time>2010-07-17T13:56:04Z</time>
<desc>lat.=55.836018, lon.=26.095253, Alt.=144.365356m. Speed=14.436000m/h.</desc>
<speed>4.010000</speed>
</trkpt>
<trkpt lat="55.836094" lon="26.094351">
<ele>152.1</ele>
<time>2010-07-17T13:56:18Z</time>
<desc>lat.=55.836094, lon.=26.094351, Alt.=144.463013m. Speed=13.680000m/h.</desc>
<speed>3.800000</speed>
</trkpt>
<trkpt lat="55.837139" lon="26.091921">
<ele>156.2</ele>
<time>2010-07-17T13:57:05Z</time>
<desc>lat.=55.837139, lon.=26.091921, Alt.=152.384888m. Speed=5.040000m/h.</desc>
<speed>1.400000</speed>
</trkpt>
<trkpt lat="55.837833" lon="26.093540">
<ele>155.8</ele>
<time>2010-07-17T14:01:01Z</time>
<desc>lat.=55.837833, lon.=26.093540, Alt.=133.978638m. Speed=2.736000m/h.</desc>
<speed>0.760000</speed>
</trkpt>
<trkpt lat="55.837181" lon="26.091858">
<ele>157.4</ele>
<time>2010-07-17T14:02:33Z</time>
<desc>lat.=55.837181, lon.=26.091858, Alt.=140.154419m. Speed=4.680000m/h.</desc>
<speed>1.300000</speed>
</trkpt>
<trkpt lat="55.839725" lon="26.086906">
<ele>162.5</ele>
<time>2010-07-17T14:04:56Z</time>
<desc>lat.=55.839725, lon.=26.086906, Alt.=159.912231m. Speed=9.108000m/h.</desc>
<speed>2.530000</speed>
</trkpt>
<trkpt lat="55.839611" lon="26.086315">
<ele>164.3</ele>
<time>2010-07-17T14:05:12Z</time>
<desc>lat.=55.839611, lon.=26.086315, Alt.=158.408325m. Speed=12.024000m/h.</desc>
<speed>3.340000</speed>
</trkpt>
<trkpt lat="55.839340" lon="26.086119">
<ele>163.7</ele>
<time>2010-07-17T14:11:51Z</time>
<desc>lat.=55.839340, lon.=26.086119, Alt.=156.232544m. Speed=0.180000m/h.</desc>
<speed>0.050000</speed>
</trkpt>
<trkpt lat="55.839764" lon="26.086666">
<ele>163.0</ele>
<time>2010-07-17T14:17:25Z</time>
<desc>lat.=55.839764, lon.=26.086666, Alt.=155.888794m. Speed=9.720000m/h.</desc>
<speed>2.700000</speed>
</trkpt>
<trkpt lat="55.840256" lon="26.086391">
<ele>163.6</ele>
<time>2010-07-17T14:17:46Z</time>
<desc>lat.=55.840256, lon.=26.086391, Alt.=156.416138m. Speed=11.664000m/h.</desc>
<speed>3.240000</speed>
</trkpt>
<trkpt lat="55.841415" lon="26.087471">
<ele>159.7</ele>
<time>2010-07-17T14:18:23Z</time>
<desc>lat.=55.841415, lon.=26.087471, Alt.=149.459106m. Speed=25.848000m/h.</desc>
<speed>7.180000</speed>
</trkpt>
<trkpt lat="55.843060" lon="26.088324">
<ele>154.2</ele>
<time>2010-07-17T14:18:42Z</time>
<desc>lat.=55.843060, lon.=26.088324, Alt.=140.533325m. Speed=27.000000m/h.</desc>
<speed>7.500000</speed>
</trkpt>
<trkpt lat="55.843834" lon="26.088459">
<ele>157.5</ele>
<time>2010-07-17T14:19:02Z</time>
<desc>lat.=55.843834, lon.=26.088459, Alt.=149.806763m. Speed=14.004000m/h.</desc>
<speed>3.890000</speed>
</trkpt>
<trkpt lat="55.856533" lon="26.083954">
<ele>156.5</ele>
<time>2010-07-17T14:23:28Z</time>
<desc>lat.=55.856533, lon.=26.083954, Alt.=147.560669m. Speed=2.124000m/h.</desc>
<speed>0.590000</speed>
</trkpt>
<trkpt lat="55.843719" lon="26.088425">
<ele>156.9</ele>
<time>2010-07-17T14:27:28Z</time>
<desc>lat.=55.843719, lon.=26.088425, Alt.=149.705200m. Speed=15.840000m/h.</desc>
<speed>4.400000</speed>
</trkpt>
<trkpt lat="55.841156" lon="26.087208">
<ele>161.7</ele>
<time>2010-07-17T14:28:22Z</time>
<desc>lat.=55.841156, lon.=26.087208, Alt.=162.068481m. Speed=8.316000m/h.</desc>
<speed>2.310000</speed>
</trkpt>
<trkpt lat="55.840420" lon="26.086369">
<ele>163.8</ele>
<time>2010-07-17T14:28:49Z</time>
<desc>lat.=55.840420, lon.=26.086369, Alt.=165.310669m. Speed=13.932000m/h.</desc>
<speed>3.870000</speed>
</trkpt>
<trkpt lat="55.840836" lon="26.085382">
<ele>164.3</ele>
<time>2010-07-17T14:30:03Z</time>
<desc>lat.=55.840836, lon.=26.085382, Alt.=162.994263m. Speed=16.200001m/h.</desc>
<speed>4.500000</speed>
</trkpt>
<trkpt lat="55.841640" lon="26.080910">
<ele>161.5</ele>
<time>2010-07-17T14:30:58Z</time>
<desc>lat.=55.841640, lon.=26.080910, Alt.=164.295044m. Speed=16.524000m/h.</desc>
<speed>4.590000</speed>
</trkpt>
<trkpt lat="55.844345" lon="26.072725">
<ele>161.3</ele>
<time>2010-07-17T14:32:55Z</time>
<desc>lat.=55.844345, lon.=26.072725, Alt.=161.396606m. Speed=18.431999m/h.</desc>
<speed>5.120000</speed>
</trkpt>
<trkpt lat="55.847080" lon="26.068209">
<ele>156.2</ele>
<time>2010-07-17T14:34:07Z</time>
<desc>lat.=55.847080, lon.=26.068209, Alt.=154.787231m. Speed=18.108000m/h.</desc>
<speed>5.030000</speed>
</trkpt>
<trkpt lat="55.848419" lon="26.065508">
<ele>158.5</ele>
<time>2010-07-17T14:34:53Z</time>
<desc>lat.=55.848419, lon.=26.065508, Alt.=152.466919m. Speed=10.728000m/h.</desc>
<speed>2.980000</speed>
</trkpt>
<trkpt lat="55.852249" lon="26.060272">
<ele>153.7</ele>
<time>2010-07-17T14:39:20Z</time>
<desc>lat.=55.852249, lon.=26.060272, Alt.=148.134888m. Speed=20.340000m/h.</desc>
<speed>5.650000</speed>
</trkpt>
<trkpt lat="55.853142" lon="26.058184">
<ele>152.7</ele>
<time>2010-07-17T14:39:46Z</time>
<desc>lat.=55.853142, lon.=26.058184, Alt.=149.974731m. Speed=21.780001m/h.</desc>
<speed>6.050000</speed>
</trkpt>
<trkpt lat="55.854382" lon="26.054230">
<ele>154.0</ele>
<time>2010-07-17T14:40:33Z</time>
<desc>lat.=55.854382, lon.=26.054230, Alt.=153.584106m. Speed=18.468000m/h.</desc>
<speed>5.130000</speed>
</trkpt>
<trkpt lat="55.855347" lon="26.051855">
<ele>157.2</ele>
<time>2010-07-17T14:41:16Z</time>
<desc>lat.=55.855347, lon.=26.051855, Alt.=157.982544m. Speed=15.912000m/h.</desc>
<speed>4.420000</speed>
</trkpt>
<trkpt lat="55.857376" lon="26.049379">
<ele>158.6</ele>
<time>2010-07-17T14:42:22Z</time>
<desc>lat.=55.857376, lon.=26.049379, Alt.=156.466919m. Speed=12.888000m/h.</desc>
<speed>3.580000</speed>
</trkpt>
<trkpt lat="55.858273" lon="26.048664">
<ele>159.1</ele>
<time>2010-07-17T14:42:43Z</time>
<desc>lat.=55.858273, lon.=26.048664, Alt.=158.845825m. Speed=16.920000m/h.</desc>
<speed>4.700000</speed>
</trkpt>
<trkpt lat="55.858891" lon="26.048555">
<ele>159.1</ele>
<time>2010-07-17T14:43:07Z</time>
<desc>lat.=55.858891, lon.=26.048555, Alt.=157.959106m. Speed=5.796000m/h.</desc>
<speed>1.610000</speed>
</trkpt>
<trkpt lat="55.861038" lon="26.048977">
<ele>162.6</ele>
<time>2010-07-17T14:46:31Z</time>
<desc>lat.=55.861038, lon.=26.048977, Alt.=160.181763m. Speed=19.403999m/h.</desc>
<speed>5.390000</speed>
</trkpt>
<trkpt lat="55.861607" lon="26.048777">
<ele>161.4</ele>
<time>2010-07-17T14:46:44Z</time>
<desc>lat.=55.861607, lon.=26.048777, Alt.=159.154419m. Speed=17.100000m/h.</desc>
<speed>4.750000</speed>
</trkpt>
<trkpt lat="55.863224" lon="26.046995">
<ele>166.8</ele>
<time>2010-07-17T14:47:46Z</time>
<desc>lat.=55.863224, lon.=26.046995, Alt.=168.181763m. Speed=11.268000m/h.</desc>
<speed>3.130000</speed>
</trkpt>
<trkpt lat="55.863869" lon="26.045803">
<ele>167.7</ele>
<time>2010-07-17T14:48:17Z</time>
<desc>lat.=55.863869, lon.=26.045803, Alt.=167.623169m. Speed=14.472000m/h.</desc>
<speed>4.020000</speed>
</trkpt>
<trkpt lat="55.865753" lon="26.043552">
<ele>170.0</ele>
<time>2010-07-17T14:49:19Z</time>
<desc>lat.=55.865753, lon.=26.043552, Alt.=174.716919m. Speed=8.316000m/h.</desc>
<speed>2.310000</speed>
</trkpt>
<trkpt lat="55.866283" lon="26.041586">
<ele>176.1</ele>
<time>2010-07-17T14:49:48Z</time>
<desc>lat.=55.866283, lon.=26.041586, Alt.=187.845825m. Speed=22.392000m/h.</desc>
<speed>6.220000</speed>
</trkpt>
<trkpt lat="55.867012" lon="26.039705">
<ele>168.6</ele>
<time>2010-07-17T14:50:07Z</time>
<desc>lat.=55.867012, lon.=26.039705, Alt.=181.216919m. Speed=11.808000m/h.</desc>
<speed>3.280000</speed>
</trkpt>
<trkpt lat="55.866390" lon="26.034838">
<ele>163.9</ele>
<time>2010-07-17T14:51:19Z</time>
<desc>lat.=55.866390, lon.=26.034838, Alt.=161.392700m. Speed=19.728001m/h.</desc>
<speed>5.480000</speed>
</trkpt>
<trkpt lat="55.866341" lon="26.031744">
<ele>159.9</ele>
<time>2010-07-17T14:51:59Z</time>
<desc>lat.=55.866341, lon.=26.031744, Alt.=160.943481m. Speed=21.312000m/h.</desc>
<speed>5.920000</speed>
</trkpt>
<trkpt lat="55.867226" lon="26.027533">
<ele>161.9</ele>
<time>2010-07-17T14:53:10Z</time>
<desc>lat.=55.867226, lon.=26.027533, Alt.=163.052856m. Speed=19.044001m/h.</desc>
<speed>5.290000</speed>
</trkpt>
<trkpt lat="55.867878" lon="26.025578">
<ele>164.7</ele>
<time>2010-07-17T14:53:43Z</time>
<desc>lat.=55.867878, lon.=26.025578, Alt.=166.814575m. Speed=13.068000m/h.</desc>
<speed>3.630000</speed>
</trkpt>
<trkpt lat="55.868027" lon="26.024366">
<ele>166.0</ele>
<time>2010-07-17T14:54:05Z</time>
<desc>lat.=55.868027, lon.=26.024366, Alt.=171.037231m. Speed=8.676000m/h.</desc>
<speed>2.410000</speed>
</trkpt>
<trkpt lat="55.867954" lon="26.023912">
<ele>167.2</ele>
<time>2010-07-17T14:54:46Z</time>
<desc>lat.=55.867954, lon.=26.023912, Alt.=170.658325m. Speed=0.180000m/h.</desc>
<speed>0.050000</speed>
</trkpt>
<trkpt lat="55.865971" lon="26.024401">
<ele>163.1</ele>
<time>2010-07-17T14:56:17Z</time>
<desc>lat.=55.865971, lon.=26.024401, Alt.=161.423950m. Speed=21.672001m/h.</desc>
<speed>6.020000</speed>
</trkpt>
<trkpt lat="55.864048" lon="26.024086">
<ele>168.0</ele>
<time>2010-07-17T14:56:53Z</time>
<desc>lat.=55.864048, lon.=26.024086, Alt.=165.213013m. Speed=22.535999m/h.</desc>
<speed>6.260000</speed>
</trkpt>
<trkpt lat="55.863335" lon="26.023771">
<ele>169.0</ele>
<time>2010-07-17T14:57:08Z</time>
<desc>lat.=55.863335, lon.=26.023771, Alt.=167.279419m. Speed=15.984000m/h.</desc>
<speed>4.440000</speed>
</trkpt>
<trkpt lat="55.862019" lon="26.022194">
<ele>168.8</ele>
<time>2010-07-17T14:57:46Z</time>
<desc>lat.=55.862019, lon.=26.022194, Alt.=174.388794m. Speed=21.420000m/h.</desc>
<speed>5.950000</speed>
</trkpt>
<trkpt lat="55.858894" lon="26.023136">
<ele>161.4</ele>
<time>2010-07-17T14:59:07Z</time>
<desc>lat.=55.858894, lon.=26.023136, Alt.=155.463013m. Speed=9.180000m/h.</desc>
<speed>2.550000</speed>
</trkpt>
<trkpt lat="55.857140" lon="26.023287">
<ele>163.3</ele>
<time>2010-07-17T14:59:46Z</time>
<desc>lat.=55.857140, lon.=26.023287, Alt.=151.330200m. Speed=26.351999m/h.</desc>
<speed>7.320000</speed>
</trkpt>
<trkpt lat="55.856819" lon="26.023045">
<ele>161.9</ele>
<time>2010-07-17T14:59:52Z</time>
<desc>lat.=55.856819, lon.=26.023045, Alt.=148.779419m. Speed=21.563999m/h.</desc>
<speed>5.990000</speed>
</trkpt>
<trkpt lat="55.856419" lon="26.022198">
<ele>166.5</ele>
<time>2010-07-17T15:00:06Z</time>
<desc>lat.=55.856419, lon.=26.022198, Alt.=148.338013m. Speed=6.876000m/h.</desc>
<speed>1.910000</speed>
</trkpt>
<trkpt lat="55.855793" lon="26.021759">
<ele>169.3</ele>
<time>2010-07-17T15:00:25Z</time>
<desc>lat.=55.855793, lon.=26.021759, Alt.=156.834106m. Speed=3.852000m/h.</desc>
<speed>1.070000</speed>
</trkpt>
<trkpt lat="55.855328" lon="26.021051">
<ele>168.8</ele>
<time>2010-07-17T15:00:41Z</time>
<desc>lat.=55.855328, lon.=26.021051, Alt.=163.912231m. Speed=12.132000m/h.</desc>
<speed>3.370000</speed>
</trkpt>
<trkpt lat="55.853474" lon="26.019712">
<ele>160.2</ele>
<time>2010-07-17T15:01:18Z</time>
<desc>lat.=55.853474, lon.=26.019712, Alt.=172.853638m. Speed=16.667999m/h.</desc>
<speed>4.630000</speed>
</trkpt>
<trkpt lat="55.853092" lon="26.019653">
<ele>163.1</ele>
<time>2010-07-17T15:01:26Z</time>
<desc>lat.=55.853092, lon.=26.019653, Alt.=173.697388m. Speed=17.280001m/h.</desc>
<speed>4.800000</speed>
</trkpt>
<trkpt lat="55.852669" lon="26.020523">
<ele>160.7</ele>
<time>2010-07-17T15:01:38Z</time>
<desc>lat.=55.852669, lon.=26.020523, Alt.=155.552856m. Speed=17.892000m/h.</desc>
<speed>4.970000</speed>
</trkpt>
<trkpt lat="55.851933" lon="26.024458">
<ele>163.7</ele>
<time>2010-07-17T15:02:48Z</time>
<desc>lat.=55.851933, lon.=26.024458, Alt.=164.056763m. Speed=16.812000m/h.</desc>
<speed>4.670000</speed>
</trkpt>
<trkpt lat="55.850796" lon="26.026861">
<ele>161.8</ele>
<time>2010-07-17T15:03:24Z</time>
<desc>lat.=55.850796, lon.=26.026861, Alt.=158.154419m. Speed=8.856000m/h.</desc>
<speed>2.460000</speed>
</trkpt>
<trkpt lat="55.848164" lon="26.030258">
<ele>156.7</ele>
<time>2010-07-17T15:04:44Z</time>
<desc>lat.=55.848164, lon.=26.030258, Alt.=155.193481m. Speed=18.900000m/h.</desc>
<speed>5.250000</speed>
</trkpt>
<trkpt lat="55.843151" lon="26.038006">
<ele>151.6</ele>
<time>2010-07-17T15:07:27Z</time>
<desc>lat.=55.843151, lon.=26.038006, Alt.=156.287231m. Speed=7.596000m/h.</desc>
<speed>2.110000</speed>
</trkpt>
<trkpt lat="55.843288" lon="26.038790">
<ele>150.1</ele>
<time>2010-07-17T15:09:27Z</time>
<desc>lat.=55.843288, lon.=26.038790, Alt.=155.627075m. Speed=0.036000m/h.</desc>
<speed>0.010000</speed>
</trkpt>
<trkpt lat="55.843098" lon="26.038103">
<ele>151.8</ele>
<time>2010-07-17T15:10:59Z</time>
<desc>lat.=55.843098, lon.=26.038103, Alt.=154.318481m. Speed=6.048000m/h.</desc>
<speed>1.680000</speed>
</trkpt>
<trkpt lat="55.840546" lon="26.040043">
<ele>148.1</ele>
<time>2010-07-17T15:12:29Z</time>
<desc>lat.=55.840546, lon.=26.040043, Alt.=150.787231m. Speed=25.416000m/h.</desc>
<speed>7.060000</speed>
</trkpt>
<trkpt lat="55.839760" lon="26.040964">
<ele>149.2</ele>
<time>2010-07-17T15:12:47Z</time>
<desc>lat.=55.839760, lon.=26.040964, Alt.=151.732544m. Speed=20.304001m/h.</desc>
<speed>5.640000</speed>
</trkpt>
<trkpt lat="55.838875" lon="26.042896">
<ele>150.4</ele>
<time>2010-07-17T15:13:23Z</time>
<desc>lat.=55.838875, lon.=26.042896, Alt.=154.224731m. Speed=18.323999m/h.</desc>
<speed>5.090000</speed>
</trkpt>
<trkpt lat="55.837761" lon="26.044741">
<ele>148.4</ele>
<time>2010-07-17T15:14:00Z</time>
<desc>lat.=55.837761, lon.=26.044741, Alt.=151.607544m. Speed=12.060000m/h.</desc>
<speed>3.350000</speed>
</trkpt>
<trkpt lat="55.837025" lon="26.046818">
<ele>149.1</ele>
<time>2010-07-17T15:15:09Z</time>
<desc>lat.=55.837025, lon.=26.046818, Alt.=147.670044m. Speed=16.596001m/h.</desc>
<speed>4.610000</speed>
</trkpt>
<trkpt lat="55.836807" lon="26.046968">
<ele>149.6</ele>
<time>2010-07-17T15:16:16Z</time>
<desc>lat.=55.836807, lon.=26.046968, Alt.=147.541138m. Speed=1.980000m/h.</desc>
<speed>0.550000</speed>
</trkpt>
<trkpt lat="55.837116" lon="26.047314">
<ele>144.5</ele>
<time>2010-07-17T15:18:54Z</time>
<desc>lat.=55.837116, lon.=26.047314, Alt.=150.834106m. Speed=0.864000m/h.</desc>
<speed>0.240000</speed>
</trkpt>
<trkpt lat="55.837002" lon="26.047379">
<ele>145.3</ele>
<time>2010-07-17T15:19:14Z</time>
<desc>lat.=55.837002, lon.=26.047379, Alt.=152.509888m. Speed=0.180000m/h.</desc>
<speed>0.050000</speed>
</trkpt>
<trkpt lat="55.837143" lon="26.047285">
<ele>144.4</ele>
<time>2010-07-17T15:21:47Z</time>
<desc>lat.=55.837143, lon.=26.047285, Alt.=165.545044m. Speed=0.144000m/h.</desc>
<speed>0.040000</speed>
</trkpt>
<trkpt lat="55.836971" lon="26.047403">
<ele>145.5</ele>
<time>2010-07-17T15:23:21Z</time>
<desc>lat.=55.836971, lon.=26.047403, Alt.=151.529419m. Speed=0.576000m/h.</desc>
<speed>0.160000</speed>
</trkpt>
<trkpt lat="55.837067" lon="26.047436">
<ele>144.1</ele>
<time>2010-07-17T15:23:41Z</time>
<desc>lat.=55.837067, lon.=26.047436, Alt.=156.017700m. Speed=0.828000m/h.</desc>
<speed>0.230000</speed>
</trkpt>
<trkpt lat="55.837124" lon="26.047226">
<ele>145.2</ele>
<time>2010-07-17T15:38:56Z</time>
<desc>lat.=55.837124, lon.=26.047226, Alt.=173.720825m. Speed=0.252000m/h.</desc>
<speed>0.070000</speed>
</trkpt>
<trkpt lat="55.836937" lon="26.047251">
<ele>147.1</ele>
<time>2010-07-17T15:41:30Z</time>
<desc>lat.=55.836937, lon.=26.047251, Alt.=149.232544m. Speed=0.252000m/h.</desc>
<speed>0.070000</speed>
</trkpt>
<trkpt lat="55.836945" lon="26.047441">
<ele>145.4</ele>
<time>2010-07-17T15:44:17Z</time>
<desc>lat.=55.836945, lon.=26.047441, Alt.=160.185669m. Speed=0.036000m/h.</desc>
<speed>0.010000</speed>
</trkpt>
<trkpt lat="55.837101" lon="26.047359">
<ele>144.3</ele>
<time>2010-07-17T15:45:05Z</time>
<desc>lat.=55.837101, lon.=26.047359, Alt.=157.173950m. Speed=1.224000m/h.</desc>
<speed>0.340000</speed>
</trkpt>
<trkpt lat="55.836910" lon="26.046965">
<ele>149.0</ele>
<time>2010-07-17T15:56:24Z</time>
<desc>lat.=55.836910, lon.=26.046965, Alt.=148.045044m. Speed=3.852000m/h.</desc>
<speed>1.070000</speed>
</trkpt>
<trkpt lat="55.835674" lon="26.047613">
<ele>151.2</ele>
<time>2010-07-17T15:57:07Z</time>
<desc>lat.=55.835674, lon.=26.047613, Alt.=156.627075m. Speed=9.792000m/h.</desc>
<speed>2.720000</speed>
</trkpt>
<trkpt lat="55.832523" lon="26.047737">
<ele>154.8</ele>
<time>2010-07-17T15:58:28Z</time>
<desc>lat.=55.832523, lon.=26.047737, Alt.=154.713013m. Speed=10.116000m/h.</desc>
<speed>2.810000</speed>
</trkpt>
<trkpt lat="55.828133" lon="26.051744">
<ele>151.1</ele>
<time>2010-07-17T16:00:57Z</time>
<desc>lat.=55.828133, lon.=26.051744, Alt.=154.259888m. Speed=13.644000m/h.</desc>
<speed>3.790000</speed>
</trkpt>
<trkpt lat="55.827209" lon="26.052296">
<ele>155.4</ele>
<time>2010-07-17T16:01:37Z</time>
<desc>lat.=55.827209, lon.=26.052296, Alt.=158.642700m. Speed=9.252000m/h.</desc>
<speed>2.570000</speed>
</trkpt>
<trkpt lat="55.826885" lon="26.052011">
<ele>155.6</ele>
<time>2010-07-17T16:01:51Z</time>
<desc>lat.=55.826885, lon.=26.052011, Alt.=160.623169m. Speed=11.700000m/h.</desc>
<speed>3.250000</speed>
</trkpt>
<trkpt lat="55.826782" lon="26.050983">
<ele>155.6</ele>
<time>2010-07-17T16:02:19Z</time>
<desc>lat.=55.826782, lon.=26.050983, Alt.=171.646606m. Speed=5.184000m/h.</desc>
<speed>1.440000</speed>
</trkpt>
<trkpt lat="55.825588" lon="26.048256">
<ele>155.1</ele>
<time>2010-07-17T16:03:06Z</time>
<desc>lat.=55.825588, lon.=26.048256, Alt.=181.830200m. Speed=12.348000m/h.</desc>
<speed>3.430000</speed>
</trkpt>
<trkpt lat="55.825127" lon="26.046560">
<ele>150.2</ele>
<time>2010-07-17T16:03:33Z</time>
<desc>lat.=55.825127, lon.=26.046560, Alt.=171.146606m. Speed=11.664000m/h.</desc>
<speed>3.240000</speed>
</trkpt>
<trkpt lat="55.822712" lon="26.043417">
<ele>150.2</ele>
<time>2010-07-17T16:05:01Z</time>
<desc>lat.=55.822712, lon.=26.043417, Alt.=154.197388m. Speed=18.180000m/h.</desc>
<speed>5.050000</speed>
</trkpt>
<trkpt lat="55.822010" lon="26.040752">
<ele>157.1</ele>
<time>2010-07-17T16:05:58Z</time>
<desc>lat.=55.822010, lon.=26.040752, Alt.=160.279419m. Speed=8.856000m/h.</desc>
<speed>2.460000</speed>
</trkpt>
<trkpt lat="55.820675" lon="26.038950">
<ele>154.0</ele>
<time>2010-07-17T16:06:54Z</time>
<desc>lat.=55.820675, lon.=26.038950, Alt.=154.447388m. Speed=23.796000m/h.</desc>
<speed>6.610000</speed>
</trkpt>
<trkpt lat="55.820271" lon="26.037903">
<ele>151.0</ele>
<time>2010-07-17T16:07:08Z</time>
<desc>lat.=55.820271, lon.=26.037903, Alt.=151.088013m. Speed=17.351999m/h.</desc>
<speed>4.820000</speed>
</trkpt>
<trkpt lat="55.819870" lon="26.037582">
<ele>150.3</ele>
<time>2010-07-17T16:07:56Z</time>
<desc>lat.=55.819870, lon.=26.037582, Alt.=154.916138m. Speed=0.252000m/h.</desc>
<speed>0.070000</speed>
</trkpt>
<trkpt lat="55.819885" lon="26.037361">
<ele>149.7</ele>
<time>2010-07-17T16:09:49Z</time>
<desc>lat.=55.819885, lon.=26.037361, Alt.=153.783325m. Speed=4.212000m/h.</desc>
<speed>1.170000</speed>
</trkpt>
<trkpt lat="55.819317" lon="26.037714">
<ele>148.4</ele>
<time>2010-07-17T16:10:26Z</time>
<desc>lat.=55.819317, lon.=26.037714, Alt.=154.392700m. Speed=0.324000m/h.</desc>
<speed>0.090000</speed>
</trkpt>
<trkpt lat="55.819778" lon="26.037666">
<ele>150.1</ele>
<time>2010-07-17T16:11:15Z</time>
<desc>lat.=55.819778, lon.=26.037666, Alt.=158.443481m. Speed=11.628000m/h.</desc>
<speed>3.230000</speed>
</trkpt>
<trkpt lat="55.819778" lon="26.037230">
<ele>149.7</ele>
<time>2010-07-17T16:11:23Z</time>
<desc>lat.=55.819778, lon.=26.037230, Alt.=158.138794m. Speed=11.376000m/h.</desc>
<speed>3.160000</speed>
</trkpt>
<trkpt lat="55.819069" lon="26.035192">
<ele>148.4</ele>
<time>2010-07-17T16:12:08Z</time>
<desc>lat.=55.819069, lon.=26.035192, Alt.=149.037231m. Speed=12.132000m/h.</desc>
<speed>3.370000</speed>
</trkpt>
<trkpt lat="55.817940" lon="26.034107">
<ele>151.6</ele>
<time>2010-07-17T16:12:53Z</time>
<desc>lat.=55.817940, lon.=26.034107, Alt.=151.744263m. Speed=7.020000m/h.</desc>
<speed>1.950000</speed>
</trkpt>
<trkpt lat="55.817997" lon="26.031931">
<ele>151.9</ele>
<time>2010-07-17T16:13:41Z</time>
<desc>lat.=55.817997, lon.=26.031931, Alt.=157.361450m. Speed=8.280000m/h.</desc>
<speed>2.300000</speed>
</trkpt>
<trkpt lat="55.816780" lon="26.031673">
<ele>150.1</ele>
<time>2010-07-17T16:14:14Z</time>
<desc>lat.=55.816780, lon.=26.031673, Alt.=148.705200m. Speed=21.204000m/h.</desc>
<speed>5.890000</speed>
</trkpt>
<trkpt lat="55.815804" lon="26.032137">
<ele>146.8</ele>
<time>2010-07-17T16:14:36Z</time>
<desc>lat.=55.815804, lon.=26.032137, Alt.=147.177856m. Speed=22.032000m/h.</desc>
<speed>6.120000</speed>
</trkpt>
<trkpt lat="55.815144" lon="26.031893">
<ele>146.0</ele>
<time>2010-07-17T16:14:47Z</time>
<desc>lat.=55.815144, lon.=26.031893, Alt.=144.802856m. Speed=20.448000m/h.</desc>
<speed>5.680000</speed>
</trkpt>
<trkpt lat="55.814457" lon="26.032038">
<ele>150.5</ele>
<time>2010-07-17T16:15:09Z</time>
<desc>lat.=55.814457, lon.=26.032038, Alt.=147.693481m. Speed=7.200000m/h.</desc>
<speed>2.000000</speed>
</trkpt>
<trkpt lat="55.813309" lon="26.031301">
<ele>151.1</ele>
<time>2010-07-17T16:15:51Z</time>
<desc>lat.=55.813309, lon.=26.031301, Alt.=158.724731m. Speed=15.696000m/h.</desc>
<speed>4.360000</speed>
</trkpt>
<trkpt lat="55.812489" lon="26.029575">
<ele>152.3</ele>
<time>2010-07-17T16:16:26Z</time>
<desc>lat.=55.812489, lon.=26.029575, Alt.=162.408325m. Speed=9.900000m/h.</desc>
<speed>2.750000</speed>
</trkpt>
<trkpt lat="55.811916" lon="26.029114">
<ele>152.9</ele>
<time>2010-07-17T16:16:48Z</time>
<desc>lat.=55.811916, lon.=26.029114, Alt.=162.556763m. Speed=10.944000m/h.</desc>
<speed>3.040000</speed>
</trkpt>
<trkpt lat="55.810795" lon="26.029667">
<ele>152.0</ele>
<time>2010-07-17T16:18:46Z</time>
<desc>lat.=55.810795, lon.=26.029667, Alt.=165.642700m. Speed=0.252000m/h.</desc>
<speed>0.070000</speed>
</trkpt>
<trkpt lat="55.810158" lon="26.030899">
<ele>154.4</ele>
<time>2010-07-17T16:19:17Z</time>
<desc>lat.=55.810158, lon.=26.030899, Alt.=165.330200m. Speed=11.844000m/h.</desc>
<speed>3.290000</speed>
</trkpt>
<trkpt lat="55.809532" lon="26.031660">
<ele>160.1</ele>
<time>2010-07-17T16:19:53Z</time>
<desc>lat.=55.809532, lon.=26.031660, Alt.=184.927856m. Speed=4.788000m/h.</desc>
<speed>1.330000</speed>
</trkpt>
<trkpt lat="55.808674" lon="26.031719">
<ele>166.2</ele>
<time>2010-07-17T16:20:45Z</time>
<desc>lat.=55.808674, lon.=26.031719, Alt.=193.443481m. Speed=9.324000m/h.</desc>
<speed>2.590000</speed>
</trkpt>
<trkpt lat="55.803967" lon="26.027702">
<ele>148.8</ele>
<time>2010-07-17T16:22:08Z</time>
<desc>lat.=55.803967, lon.=26.027702, Alt.=180.767700m. Speed=43.919998m/h.</desc>
<speed>12.199999</speed>
</trkpt>
<trkpt lat="55.801472" lon="26.024693">
<ele>146.5</ele>
<time>2010-07-17T16:22:46Z</time>
<desc>lat.=55.801472, lon.=26.024693, Alt.=171.357544m. Speed=27.000000m/h.</desc>
<speed>7.500000</speed>
</trkpt>
<trkpt lat="55.800617" lon="26.024109">
<ele>145.4</ele>
<time>2010-07-17T16:22:59Z</time>
<desc>lat.=55.800617, lon.=26.024109, Alt.=168.748169m. Speed=28.115999m/h.</desc>
<speed>7.810000</speed>
</trkpt>
<trkpt lat="55.799644" lon="26.024174">
<ele>145.0</ele>
<time>2010-07-17T16:23:24Z</time>
<desc>lat.=55.799644, lon.=26.024174, Alt.=165.638794m. Speed=10.692000m/h.</desc>
<speed>2.970000</speed>
</trkpt>
<trkpt lat="55.798676" lon="26.025101">
<ele>144.9</ele>
<time>2010-07-17T16:24:04Z</time>
<desc>lat.=55.798676, lon.=26.025101, Alt.=161.947388m. Speed=12.924000m/h.</desc>
<speed>3.590000</speed>
</trkpt>
<trkpt lat="55.798180" lon="26.025961">
<ele>145.6</ele>
<time>2010-07-17T16:24:25Z</time>
<desc>lat.=55.798180, lon.=26.025961, Alt.=163.255981m. Speed=9.900000m/h.</desc>
<speed>2.750000</speed>
</trkpt>
<trkpt lat="55.796886" lon="26.029310">
<ele>152.1</ele>
<time>2010-07-17T16:25:18Z</time>
<desc>lat.=55.796886, lon.=26.029310, Alt.=194.806763m. Speed=18.035999m/h.</desc>
<speed>5.010000</speed>
</trkpt>
<trkpt lat="55.796158" lon="26.030657">
<ele>164.1</ele>
<time>2010-07-17T16:25:40Z</time>
<desc>lat.=55.796158, lon.=26.030657, Alt.=208.716919m. Speed=15.480000m/h.</desc>
<speed>4.300000</speed>
</trkpt>
<trkpt lat="55.795479" lon="26.033138">
<ele>151.3</ele>
<time>2010-07-17T16:26:23Z</time>
<desc>lat.=55.795479, lon.=26.033138, Alt.=256.949463m. Speed=6.588000m/h.</desc>
<speed>1.830000</speed>
</trkpt>
<trkpt lat="55.794739" lon="26.033911">
<ele>155.8</ele>
<time>2010-07-17T16:26:45Z</time>
<desc>lat.=55.794739, lon.=26.033911, Alt.=231.814575m. Speed=7.884000m/h.</desc>
<speed>2.190000</speed>
</trkpt>
<trkpt lat="55.793678" lon="26.034159">
<ele>165.6</ele>
<time>2010-07-17T16:27:16Z</time>
<desc>lat.=55.793678, lon.=26.034159, Alt.=220.646606m. Speed=12.708000m/h.</desc>
<speed>3.530000</speed>
</trkpt>
<trkpt lat="55.791580" lon="26.033991">
<ele>167.2</ele>
<time>2010-07-17T16:29:29Z</time>
<desc>lat.=55.791580, lon.=26.033991, Alt.=205.287231m. Speed=19.296000m/h.</desc>
<speed>5.360000</speed>
</trkpt>
<trkpt lat="55.789421" lon="26.035887">
<ele>165.6</ele>
<time>2010-07-17T16:30:17Z</time>
<desc>lat.=55.789421, lon.=26.035887, Alt.=193.435669m. Speed=17.747999m/h.</desc>
<speed>4.930000</speed>
</trkpt>
<trkpt lat="55.788177" lon="26.036551">
<ele>166.8</ele>
<time>2010-07-17T16:30:40Z</time>
<desc>lat.=55.788177, lon.=26.036551, Alt.=195.982544m. Speed=16.271999m/h.</desc>
<speed>4.520000</speed>
</trkpt>
<trkpt lat="55.786945" lon="26.036613">
<ele>171.4</ele>
<time>2010-07-17T16:31:04Z</time>
<desc>lat.=55.786945, lon.=26.036613, Alt.=191.689575m. Speed=16.164000m/h.</desc>
<speed>4.490000</speed>
</trkpt>
<trkpt lat="55.785564" lon="26.036182">
<ele>168.4</ele>
<time>2010-07-17T16:32:32Z</time>
<desc>lat.=55.785564, lon.=26.036182, Alt.=185.420044m. Speed=0.936000m/h.</desc>
<speed>0.260000</speed>
</trkpt>
<trkpt lat="55.783436" lon="26.036558">
<ele>165.7</ele>
<time>2010-07-17T16:33:38Z</time>
<desc>lat.=55.783436, lon.=26.036558, Alt.=178.552856m. Speed=18.684000m/h.</desc>
<speed>5.190000</speed>
</trkpt>
<trkpt lat="55.782845" lon="26.036415">
<ele>167.3</ele>
<time>2010-07-17T16:33:52Z</time>
<desc>lat.=55.782845, lon.=26.036415, Alt.=181.009888m. Speed=7.452000m/h.</desc>
<speed>2.070000</speed>
</trkpt>
<trkpt lat="55.782078" lon="26.035299">
<ele>164.6</ele>
<time>2010-07-17T16:34:18Z</time>
<desc>lat.=55.782078, lon.=26.035299, Alt.=184.642700m. Speed=11.916000m/h.</desc>
<speed>3.310000</speed>
</trkpt>
<trkpt lat="55.781525" lon="26.033339">
<ele>167.1</ele>
<time>2010-07-17T16:34:43Z</time>
<desc>lat.=55.781525, lon.=26.033339, Alt.=178.072388m. Speed=16.848000m/h.</desc>
<speed>4.680000</speed>
</trkpt>
<trkpt lat="55.781094" lon="26.030983">
<ele>164.8</ele>
<time>2010-07-17T16:35:09Z</time>
<desc>lat.=55.781094, lon.=26.030983, Alt.=168.486450m. Speed=22.427999m/h.</desc>
<speed>6.230000</speed>
</trkpt>
<trkpt lat="55.780468" lon="26.029482">
<ele>159.7</ele>
<time>2010-07-17T16:35:27Z</time>
<desc>lat.=55.780468, lon.=26.029482, Alt.=160.111450m. Speed=17.856001m/h.</desc>
<speed>4.960000</speed>
</trkpt>
<trkpt lat="55.777458" lon="26.026184">
<ele>158.1</ele>
<time>2010-07-17T16:36:29Z</time>
<desc>lat.=55.777458, lon.=26.026184, Alt.=164.959106m. Speed=15.840000m/h.</desc>
<speed>4.400000</speed>
</trkpt>
<trkpt lat="55.774384" lon="26.026712">
<ele>159.5</ele>
<time>2010-07-17T16:37:34Z</time>
<desc>lat.=55.774384, lon.=26.026712, Alt.=163.713013m. Speed=17.424000m/h.</desc>
<speed>4.840000</speed>
</trkpt>
<trkpt lat="55.768890" lon="26.024178">
<ele>159.9</ele>
<time>2010-07-17T16:39:31Z</time>
<desc>lat.=55.768890, lon.=26.024178, Alt.=155.525513m. Speed=16.559999m/h.</desc>
<speed>4.600000</speed>
</trkpt>
<trkpt lat="55.767773" lon="26.023968">
<ele>158.5</ele>
<time>2010-07-17T16:39:51Z</time>
<desc>lat.=55.767773, lon.=26.023968, Alt.=153.353638m. Speed=12.744000m/h.</desc>
<speed>3.540000</speed>
</trkpt>
<trkpt lat="55.765842" lon="26.024717">
<ele>157.1</ele>
<time>2010-07-17T16:40:32Z</time>
<desc>lat.=55.765842, lon.=26.024717, Alt.=160.005981m. Speed=18.000000m/h.</desc>
<speed>5.000000</speed>
</trkpt>
<trkpt lat="55.763119" lon="26.026461">
<ele>158.6</ele>
<time>2010-07-17T16:41:27Z</time>
<desc>lat.=55.763119, lon.=26.026461, Alt.=160.115356m. Speed=22.320000m/h.</desc>
<speed>6.200000</speed>
</trkpt>
<trkpt lat="55.761642" lon="26.026773">
<ele>158.7</ele>
<time>2010-07-17T16:41:51Z</time>
<desc>lat.=55.761642, lon.=26.026773, Alt.=152.373169m. Speed=26.100000m/h.</desc>
<speed>7.250000</speed>
</trkpt>
<trkpt lat="55.760860" lon="26.026501">
<ele>159.3</ele>
<time>2010-07-17T16:42:04Z</time>
<desc>lat.=55.760860, lon.=26.026501, Alt.=158.091919m. Speed=21.348000m/h.</desc>
<speed>5.930000</speed>
</trkpt>
<trkpt lat="55.760349" lon="26.026033">
<ele>161.6</ele>
<time>2010-07-17T16:42:15Z</time>
<desc>lat.=55.760349, lon.=26.026033, Alt.=162.123169m. Speed=19.980000m/h.</desc>
<speed>5.550000</speed>
</trkpt>
<trkpt lat="55.758305" lon="26.022877">
<ele>174.3</ele>
<time>2010-07-17T16:52:24Z</time>
<desc>lat.=55.758305, lon.=26.022877, Alt.=182.607544m. Speed=0.036000m/h.</desc>
<speed>0.010000</speed>
</trkpt>
<trkpt lat="55.758015" lon="26.023951">
<ele>173.4</ele>
<time>2010-07-17T16:53:42Z</time>
<desc>lat.=55.758015, lon.=26.023951, Alt.=178.677856m. Speed=13.248000m/h.</desc>
<speed>3.680000</speed>
</trkpt>
<trkpt lat="55.755672" lon="26.028330">
<ele>172.6</ele>
<time>2010-07-17T16:57:18Z</time>
<desc>lat.=55.755672, lon.=26.028330, Alt.=167.431763m. Speed=21.780001m/h.</desc>
<speed>6.050000</speed>
</trkpt>
<trkpt lat="55.755352" lon="26.029484">
<ele>172.3</ele>
<time>2010-07-17T16:57:30Z</time>
<desc>lat.=55.755352, lon.=26.029484, Alt.=168.545044m. Speed=18.072001m/h.</desc>
<speed>5.020000</speed>
</trkpt>
<trkpt lat="55.755142" lon="26.031223">
<ele>170.8</ele>
<time>2010-07-17T16:58:01Z</time>
<desc>lat.=55.755142, lon.=26.031223, Alt.=175.048950m. Speed=9.432000m/h.</desc>
<speed>2.620000</speed>
</trkpt>
<trkpt lat="55.756077" lon="26.036404">
<ele>167.4</ele>
<time>2010-07-17T16:59:24Z</time>
<desc>lat.=55.756077, lon.=26.036404, Alt.=175.986450m. Speed=16.020000m/h.</desc>
<speed>4.450000</speed>
</trkpt>
<trkpt lat="55.756565" lon="26.037647">
<ele>157.7</ele>
<time>2010-07-17T16:59:44Z</time>
<desc>lat.=55.756565, lon.=26.037647, Alt.=171.291138m. Speed=19.044001m/h.</desc>
<speed>5.290000</speed>
</trkpt>
<trkpt lat="55.757488" lon="26.039326">
<ele>156.6</ele>
<time>2010-07-17T17:00:50Z</time>
<desc>lat.=55.757488, lon.=26.039326, Alt.=162.818481m. Speed=4.356000m/h.</desc>
<speed>1.210000</speed>
</trkpt>
<trkpt lat="55.757999" lon="26.039749">
<ele>155.3</ele>
<time>2010-07-17T17:01:35Z</time>
<desc>lat.=55.757999, lon.=26.039749, Alt.=162.720825m. Speed=3.888000m/h.</desc>
<speed>1.080000</speed>
</trkpt>
<trkpt lat="55.758762" lon="26.039776">
<ele>154.0</ele>
<time>2010-07-17T17:02:00Z</time>
<desc>lat.=55.758762, lon.=26.039776, Alt.=162.396606m. Speed=7.632000m/h.</desc>
<speed>2.120000</speed>
</trkpt>
<trkpt lat="55.759190" lon="26.040073">
<ele>155.6</ele>
<time>2010-07-17T17:02:16Z</time>
<desc>lat.=55.759190, lon.=26.040073, Alt.=167.353638m. Speed=6.192000m/h.</desc>
<speed>1.720000</speed>
</trkpt>
<trkpt lat="55.759567" lon="26.039646">
<ele>163.2</ele>
<time>2010-07-17T17:02:33Z</time>
<desc>lat.=55.759567, lon.=26.039646, Alt.=166.509888m. Speed=11.304000m/h.</desc>
<speed>3.140000</speed>
</trkpt>
<trkpt lat="55.759998" lon="26.039684">
<ele>157.1</ele>
<time>2010-07-17T17:03:01Z</time>
<desc>lat.=55.759998, lon.=26.039684, Alt.=158.752075m. Speed=0.360000m/h.</desc>
<speed>0.100000</speed>
</trkpt>
<trkpt lat="55.760086" lon="26.040783">
<ele>154.0</ele>
<time>2010-07-17T17:05:37Z</time>
<desc>lat.=55.760086, lon.=26.040783, Alt.=172.279419m. Speed=1.044000m/h.</desc>
<speed>0.290000</speed>
</trkpt>
<trkpt lat="55.760281" lon="26.040173">
<ele>160.3</ele>
<time>2010-07-17T17:06:48Z</time>
<desc>lat.=55.760281, lon.=26.040173, Alt.=172.498169m. Speed=2.592000m/h.</desc>
<speed>0.720000</speed>
</trkpt>
<trkpt lat="55.760212" lon="26.039570">
<ele>156.8</ele>
<time>2010-07-17T17:07:16Z</time>
<desc>lat.=55.760212, lon.=26.039570, Alt.=172.295044m. Speed=2.088000m/h.</desc>
<speed>0.580000</speed>
</trkpt>
<trkpt lat="55.759972" lon="26.039698">
<ele>157.3</ele>
<time>2010-07-17T17:15:42Z</time>
<desc>lat.=55.759972, lon.=26.039698, Alt.=167.107544m. Speed=0.144000m/h.</desc>
<speed>0.040000</speed>
</trkpt>
<trkpt lat="55.760113" lon="26.040102">
<ele>159.0</ele>
<time>2010-07-17T17:16:53Z</time>
<desc>lat.=55.760113, lon.=26.040102, Alt.=170.310669m. Speed=0.504000m/h.</desc>
<speed>0.140000</speed>
</trkpt>
<trkpt lat="55.760365" lon="26.039749">
<ele>161.7</ele>
<time>2010-07-17T17:20:18Z</time>
<desc>lat.=55.760365, lon.=26.039749, Alt.=174.474731m. Speed=0.216000m/h.</desc>
<speed>0.060000</speed>
</trkpt>
<trkpt lat="55.760490" lon="26.039833">
<ele>161.9</ele>
<time>2010-07-17T17:21:18Z</time>
<desc>lat.=55.760490, lon.=26.039833, Alt.=180.986450m. Speed=0.576000m/h.</desc>
<speed>0.160000</speed>
</trkpt>
<trkpt lat="55.760265" lon="26.040020">
<ele>160.4</ele>
<time>2010-07-17T17:23:11Z</time>
<desc>lat.=55.760265, lon.=26.040020, Alt.=173.255981m. Speed=0.252000m/h.</desc>
<speed>0.070000</speed>
</trkpt>
<trkpt lat="55.760368" lon="26.039764">
<ele>161.9</ele>
<time>2010-07-17T17:26:39Z</time>
<desc>lat.=55.760368, lon.=26.039764, Alt.=178.685669m. Speed=0.288000m/h.</desc>
<speed>0.080000</speed>
</trkpt>
<trkpt lat="55.760273" lon="26.039928">
<ele>160.6</ele>
<time>2010-07-17T17:28:42Z</time>
<desc>lat.=55.760273, lon.=26.039928, Alt.=167.279419m. Speed=0.576000m/h.</desc>
<speed>0.160000</speed>
</trkpt>
<trkpt lat="55.760479" lon="26.039896">
<ele>161.7</ele>
<time>2010-07-17T17:29:28Z</time>
<desc>lat.=55.760479, lon.=26.039896, Alt.=182.869263m. Speed=0.504000m/h.</desc>
<speed>0.140000</speed>
</trkpt>
<trkpt lat="55.760414" lon="26.040035">
<ele>161.7</ele>
<time>2010-07-17T17:29:47Z</time>
<desc>lat.=55.760414, lon.=26.040035, Alt.=176.857544m. Speed=1.188000m/h.</desc>
<speed>0.330000</speed>
</trkpt>
<trkpt lat="55.760353" lon="26.039717">
<ele>161.1</ele>
<time>2010-07-17T17:30:32Z</time>
<desc>lat.=55.760353, lon.=26.039717, Alt.=170.498169m. Speed=0.936000m/h.</desc>
<speed>0.260000</speed>
</trkpt>
<trkpt lat="55.760216" lon="26.039900">
<ele>159.9</ele>
<time>2010-07-17T17:30:51Z</time>
<desc>lat.=55.760216, lon.=26.039900, Alt.=166.357544m. Speed=1.368000m/h.</desc>
<speed>0.380000</speed>
</trkpt>
<trkpt lat="55.759880" lon="26.039492">
<ele>155.8</ele>
<time>2010-07-17T17:31:09Z</time>
<desc>lat.=55.759880, lon.=26.039492, Alt.=165.670044m. Speed=7.092000m/h.</desc>
<speed>1.970000</speed>
</trkpt>
<trkpt lat="55.759468" lon="26.039818">
<ele>162.5</ele>
<time>2010-07-17T17:31:24Z</time>
<desc>lat.=55.759468, lon.=26.039818, Alt.=167.064575m. Speed=6.408000m/h.</desc>
<speed>1.780000</speed>
</trkpt>
<trkpt lat="55.758205" lon="26.039532">
<ele>159.3</ele>
<time>2010-07-17T17:32:03Z</time>
<desc>lat.=55.758205, lon.=26.039532, Alt.=146.412231m. Speed=10.476000m/h.</desc>
<speed>2.910000</speed>
</trkpt>
<trkpt lat="55.757450" lon="26.039089">
<ele>158.9</ele>
<time>2010-07-17T17:32:23Z</time>
<desc>lat.=55.757450, lon.=26.039089, Alt.=156.263794m. Speed=10.260000m/h.</desc>
<speed>2.850000</speed>
</trkpt>
<trkpt lat="55.756260" lon="26.036949">
<ele>162.3</ele>
<time>2010-07-17T17:33:33Z</time>
<desc>lat.=55.756260, lon.=26.036949, Alt.=158.373169m. Speed=2.808000m/h.</desc>
<speed>0.780000</speed>
</trkpt>
<trkpt lat="55.755939" lon="26.035728">
<ele>171.5</ele>
<time>2010-07-17T17:34:57Z</time>
<desc>lat.=55.755939, lon.=26.035728, Alt.=164.529419m. Speed=2.592000m/h.</desc>
<speed>0.720000</speed>
</trkpt>
<trkpt lat="55.755180" lon="26.031073">
<ele>171.5</ele>
<time>2010-07-17T17:36:07Z</time>
<desc>lat.=55.755180, lon.=26.031073, Alt.=172.826294m. Speed=22.500000m/h.</desc>
<speed>6.250000</speed>
</trkpt>
<trkpt lat="55.755424" lon="26.029032">
<ele>171.6</ele>
<time>2010-07-17T17:36:29Z</time>
<desc>lat.=55.755424, lon.=26.029032, Alt.=166.818481m. Speed=23.219999m/h.</desc>
<speed>6.450000</speed>
</trkpt>
<trkpt lat="55.755722" lon="26.028175">
<ele>173.2</ele>
<time>2010-07-17T17:36:42Z</time>
<desc>lat.=55.755722, lon.=26.028175, Alt.=162.705200m. Speed=11.808000m/h.</desc>
<speed>3.280000</speed>
</trkpt>
<trkpt lat="55.758480" lon="26.023205">
<ele>172.1</ele>
<time>2010-07-17T17:39:09Z</time>
<desc>lat.=55.758480, lon.=26.023205, Alt.=169.603638m. Speed=6.588000m/h.</desc>
<speed>1.830000</speed>
</trkpt>
<trkpt lat="55.757793" lon="26.021423">
<ele>171.1</ele>
<time>2010-07-17T17:39:42Z</time>
<desc>lat.=55.757793, lon.=26.021423, Alt.=178.170044m. Speed=15.696000m/h.</desc>
<speed>4.360000</speed>
</trkpt>
<trkpt lat="55.756008" lon="26.021894">
<ele>170.2</ele>
<time>2010-07-17T17:40:24Z</time>
<desc>lat.=55.756008, lon.=26.021894, Alt.=168.439575m. Speed=17.136000m/h.</desc>
<speed>4.760000</speed>
</trkpt>
<trkpt lat="55.754047" lon="26.023598">
<ele>175.6</ele>
<time>2010-07-17T17:41:38Z</time>
<desc>lat.=55.754047, lon.=26.023598, Alt.=161.377075m. Speed=0.432000m/h.</desc>
<speed>0.120000</speed>
</trkpt>
<trkpt lat="55.753925" lon="26.022753">
<ele>175.1</ele>
<time>2010-07-17T17:42:32Z</time>
<desc>lat.=55.753925, lon.=26.022753, Alt.=167.830200m. Speed=0.648000m/h.</desc>
<speed>0.180000</speed>
</trkpt>
<trkpt lat="55.754169" lon="26.029726">
<ele>161.4</ele>
<time>2010-07-17T17:46:09Z</time>
<desc>lat.=55.754169, lon.=26.029726, Alt.=166.740356m. Speed=17.243999m/h.</desc>
<speed>4.790000</speed>
</trkpt>
<trkpt lat="55.753563" lon="26.032602">
<ele>172.6</ele>
<time>2010-07-17T17:46:47Z</time>
<desc>lat.=55.753563, lon.=26.032602, Alt.=163.841919m. Speed=6.228000m/h.</desc>
<speed>1.730000</speed>
</trkpt>
<trkpt lat="55.752934" lon="26.034386">
<ele>173.6</ele>
<time>2010-07-17T17:47:36Z</time>
<desc>lat.=55.752934, lon.=26.034386, Alt.=174.255981m. Speed=11.340000m/h.</desc>
<speed>3.150000</speed>
</trkpt>
<trkpt lat="55.750786" lon="26.038216">
<ele>169.2</ele>
<time>2010-07-17T17:48:39Z</time>
<desc>lat.=55.750786, lon.=26.038216, Alt.=170.037231m. Speed=12.060000m/h.</desc>
<speed>3.350000</speed>
</trkpt>
<trkpt lat="55.747105" lon="26.042841">
<ele>162.5</ele>
<time>2010-07-17T17:50:09Z</time>
<desc>lat.=55.747105, lon.=26.042841, Alt.=160.384888m. Speed=14.256000m/h.</desc>
<speed>3.960000</speed>
</trkpt>
<trkpt lat="55.746475" lon="26.044285">
<ele>159.3</ele>
<time>2010-07-17T17:50:34Z</time>
<desc>lat.=55.746475, lon.=26.044285, Alt.=157.478638m. Speed=13.968000m/h.</desc>
<speed>3.880000</speed>
</trkpt>
<trkpt lat="55.743000" lon="26.045351">
<ele>164.4</ele>
<time>2010-07-17T17:52:05Z</time>
<desc>lat.=55.743000, lon.=26.045351, Alt.=167.873169m. Speed=13.644000m/h.</desc>
<speed>3.790000</speed>
</trkpt>
<trkpt lat="55.740818" lon="26.045294">
<ele>165.9</ele>
<time>2010-07-17T17:52:52Z</time>
<desc>lat.=55.740818, lon.=26.045294, Alt.=159.552856m. Speed=17.172001m/h.</desc>
<speed>4.770000</speed>
</trkpt>
<trkpt lat="55.739201" lon="26.046448">
<ele>165.6</ele>
<time>2010-07-17T17:53:32Z</time>
<desc>lat.=55.739201, lon.=26.046448, Alt.=167.052856m. Speed=17.063999m/h.</desc>
<speed>4.740000</speed>
</trkpt>
<trkpt lat="55.736683" lon="26.047058">
<ele>165.4</ele>
<time>2010-07-17T17:54:22Z</time>
<desc>lat.=55.736683, lon.=26.047058, Alt.=161.416138m. Speed=17.136000m/h.</desc>
<speed>4.760000</speed>
</trkpt>
<trkpt lat="55.734722" lon="26.049782">
<ele>170.4</ele>
<time>2010-07-17T17:55:22Z</time>
<desc>lat.=55.734722, lon.=26.049782, Alt.=166.982544m. Speed=15.228000m/h.</desc>
<speed>4.230000</speed>
</trkpt>
<trkpt lat="55.732071" lon="26.050716">
<ele>161.1</ele>
<time>2010-07-17T17:56:03Z</time>
<desc>lat.=55.732071, lon.=26.050716, Alt.=161.189575m. Speed=19.044001m/h.</desc>
<speed>5.290000</speed>
</trkpt>
<trkpt lat="55.731426" lon="26.051620">
<ele>161.7</ele>
<time>2010-07-17T17:56:20Z</time>
<desc>lat.=55.731426, lon.=26.051620, Alt.=153.486450m. Speed=20.664000m/h.</desc>
<speed>5.740000</speed>
</trkpt>
<trkpt lat="55.729954" lon="26.054646">
<ele>158.0</ele>
<time>2010-07-17T17:57:00Z</time>
<desc>lat.=55.729954, lon.=26.054646, Alt.=158.123169m. Speed=26.892000m/h.</desc>
<speed>7.470000</speed>
</trkpt>
<trkpt lat="55.728600" lon="26.056736">
<ele>159.5</ele>
<time>2010-07-17T17:57:37Z</time>
<desc>lat.=55.728600, lon.=26.056736, Alt.=157.685669m. Speed=13.464000m/h.</desc>
<speed>3.740000</speed>
</trkpt>
<trkpt lat="55.725391" lon="26.059017">
<ele>163.3</ele>
<time>2010-07-17T17:59:10Z</time>
<desc>lat.=55.725391, lon.=26.059017, Alt.=147.943481m. Speed=9.000000m/h.</desc>
<speed>2.500000</speed>
</trkpt>
<trkpt lat="55.724380" lon="26.059515">
<ele>166.1</ele>
<time>2010-07-17T17:59:43Z</time>
<desc>lat.=55.724380, lon.=26.059515, Alt.=156.951294m. Speed=8.532000m/h.</desc>
<speed>2.370000</speed>
</trkpt>
<trkpt lat="55.723000" lon="26.059580">
<ele>169.7</ele>
<time>2010-07-17T18:00:22Z</time>
<desc>lat.=55.723000, lon.=26.059580, Alt.=144.427856m. Speed=14.760000m/h.</desc>
<speed>4.100000</speed>
</trkpt>
<trkpt lat="55.717987" lon="26.063953">
<ele>163.0</ele>
<time>2010-07-17T18:02:25Z</time>
<desc>lat.=55.717987, lon.=26.063953, Alt.=150.990356m. Speed=19.260000m/h.</desc>
<speed>5.350000</speed>
</trkpt>
<trkpt lat="55.713722" lon="26.065819">
<ele>165.0</ele>
<time>2010-07-17T18:04:56Z</time>
<desc>lat.=55.713722, lon.=26.065819, Alt.=162.998169m. Speed=0.432000m/h.</desc>
<speed>0.120000</speed>
</trkpt>
<trkpt lat="55.713825" lon="26.066036">
<ele>164.8</ele>
<time>2010-07-17T18:08:33Z</time>
<desc>lat.=55.713825, lon.=26.066036, Alt.=161.732544m. Speed=2.088000m/h.</desc>
<speed>0.580000</speed>
</trkpt>
<trkpt lat="55.713440" lon="26.065920">
<ele>165.4</ele>
<time>2010-07-17T18:15:05Z</time>
<desc>lat.=55.713440, lon.=26.065920, Alt.=165.072388m. Speed=9.396000m/h.</desc>
<speed>2.610000</speed>
</trkpt>
<trkpt lat="55.709362" lon="26.067411">
<ele>164.1</ele>
<time>2010-07-17T18:16:35Z</time>
<desc>lat.=55.709362, lon.=26.067411, Alt.=146.521606m. Speed=15.984000m/h.</desc>
<speed>4.440000</speed>
</trkpt>
<trkpt lat="55.707550" lon="26.066658">
<ele>173.9</ele>
<time>2010-07-17T18:17:26Z</time>
<desc>lat.=55.707550, lon.=26.066658, Alt.=136.295044m. Speed=21.492001m/h.</desc>
<speed>5.970000</speed>
</trkpt>
<trkpt lat="55.704998" lon="26.068014">
<ele>161.7</ele>
<time>2010-07-17T18:18:06Z</time>
<desc>lat.=55.704998, lon.=26.068014, Alt.=108.258850m. Speed=15.300000m/h.</desc>
<speed>4.250000</speed>
</trkpt>
<trkpt lat="55.703590" lon="26.069435">
<ele>158.6</ele>
<time>2010-07-17T18:18:43Z</time>
<desc>lat.=55.703590, lon.=26.069435, Alt.=138.982544m. Speed=13.824000m/h.</desc>
<speed>3.840000</speed>
</trkpt>
<trkpt lat="55.702930" lon="26.070831">
<ele>161.2</ele>
<time>2010-07-17T18:19:09Z</time>
<desc>lat.=55.702930, lon.=26.070831, Alt.=157.470825m. Speed=10.872000m/h.</desc>
<speed>3.020000</speed>
</trkpt>
<trkpt lat="55.702332" lon="26.074060">
<ele>156.9</ele>
<time>2010-07-17T18:19:59Z</time>
<desc>lat.=55.702332, lon.=26.074060, Alt.=162.478638m. Speed=21.024000m/h.</desc>
<speed>5.840000</speed>
</trkpt>
<trkpt lat="55.702251" lon="26.075302">
<ele>156.1</ele>
<time>2010-07-17T18:20:14Z</time>
<desc>lat.=55.702251, lon.=26.075302, Alt.=157.009888m. Speed=14.724000m/h.</desc>
<speed>4.090000</speed>
</trkpt>
<trkpt lat="55.703457" lon="26.086351">
<ele>155.1</ele>
<time>2010-07-17T18:25:33Z</time>
<desc>lat.=55.703457, lon.=26.086351, Alt.=152.541138m. Speed=0.432000m/h.</desc>
<speed>0.120000</speed>
</trkpt>
<trkpt lat="55.704327" lon="26.086369">
<ele>157.1</ele>
<time>2010-07-17T18:27:16Z</time>
<desc>lat.=55.704327, lon.=26.086369, Alt.=165.623169m. Speed=0.036000m/h.</desc>
<speed>0.010000</speed>
</trkpt>
<trkpt lat="55.703571" lon="26.086386">
<ele>156.0</ele>
<time>2010-07-17T18:27:49Z</time>
<desc>lat.=55.703571, lon.=26.086386, Alt.=162.361450m. Speed=11.124000m/h.</desc>
<speed>3.090000</speed>
</trkpt>
<trkpt lat="55.703350" lon="26.085915">
<ele>154.9</ele>
<time>2010-07-17T18:28:03Z</time>
<desc>lat.=55.703350, lon.=26.085915, Alt.=158.560669m. Speed=12.564000m/h.</desc>
<speed>3.490000</speed>
</trkpt>
<trkpt lat="55.702541" lon="26.086235">
<ele>156.9</ele>
<time>2010-07-17T18:29:06Z</time>
<desc>lat.=55.702541, lon.=26.086235, Alt.=156.689575m. Speed=0.144000m/h.</desc>
<speed>0.040000</speed>
</trkpt>
<trkpt lat="55.702751" lon="26.086384">
<ele>156.1</ele>
<time>2010-07-17T18:29:28Z</time>
<desc>lat.=55.702751, lon.=26.086384, Alt.=157.240356m. Speed=18.360001m/h.</desc>
<speed>5.100000</speed>
</trkpt>
<trkpt lat="55.703281" lon="26.085960">
<ele>154.7</ele>
<time>2010-07-17T18:29:40Z</time>
<desc>lat.=55.703281, lon.=26.085960, Alt.=156.732544m. Speed=16.775999m/h.</desc>
<speed>4.660000</speed>
</trkpt>
<trkpt lat="55.703533" lon="26.086420">
<ele>155.8</ele>
<time>2010-07-17T18:29:51Z</time>
<desc>lat.=55.703533, lon.=26.086420, Alt.=163.642700m. Speed=13.536000m/h.</desc>
<speed>3.760000</speed>
</trkpt>
<trkpt lat="55.704414" lon="26.086411">
<ele>158.3</ele>
<time>2010-07-17T19:11:38Z</time>
<desc>lat.=55.704414, lon.=26.086411, Alt.=166.345825m. Speed=0.072000m/h.</desc>
<speed>0.020000</speed>
</trkpt>
<trkpt lat="55.704334" lon="26.086334">
<ele>157.0</ele>
<time>2010-07-17T20:27:07Z</time>
<desc>lat.=55.704334, lon.=26.086334, Alt.=147.463013m. Speed=0.180000m/h.</desc>
<speed>0.050000</speed>
</trkpt>
</trkseg>
</trk>
</gpx>